Observation data for Dell City 1N on 12/08/2019      Previous  Date       Current Mesonet Observations  Soil Data  Daily Summary Page  Observations in Plain Language
KDC1 080600Z 28006KT 06/04 A3014 RMK A01 T00580038  RH  087%=      5-min Rain = 0
KDC1 080601Z 28006KT 06/04 A3014 RMK A01 T00570038  RH  087%=      5-min Rain = 0
KDC1 080602Z 28006KT 06/04 A3014 RMK A01 T00560037  RH  088%=      5-min Rain = 0
KDC1 080603Z 28005KT 05/04 A3014 RMK A01 T00540036  RH  088%=      5-min Rain = 0
KDC1 080604Z 28005KT 05/04 A3014 RMK A01 T00530036  RH  089%=      5-min Rain = 0
KDC1 080605Z 28005KT 05/04 A3014 RMK A01 T00530036  RH  089%=      5-min Rain = 0
KDC1 080606Z 28006KT 05/04 A3014 RMK A01 T00520036  RH  089%=      5-min Rain = 0
KDC1 080607Z 28006KT 05/04 A3014 RMK A01 T00510035  RH  089%=      5-min Rain = 0
KDC1 080608Z 28006KT 05/03 A3015 RMK A01 T00500034  RH  089%=      5-min Rain = 0
KDC1 080609Z 28006KT 05/03 A3015 RMK A01 T00490034  RH  090%=      5-min Rain = 0
KDC1 080610Z 28006KT 05/03 A3015 RMK A01 T00490034  RH  090%=      5-min Rain = 0
KDC1 080611Z 28006KT 05/03 A3014 RMK A01 T00480034  RH  091%=      5-min Rain = 0
KDC1 080612Z 29006KT 05/03 A3014 RMK A01 T00480034  RH  091%=      5-min Rain = 0
KDC1 080613Z 29006KT 05/03 A3014 RMK A01 T00470034  RH  091%=      5-min Rain = 0
KDC1 080614Z 29006KT 05/03 A3014 RMK A01 T00470034  RH  092%=      5-min Rain = 0
KDC1 080615Z 29006KT 05/03 A3014 RMK A01 T00470034  RH  092%=      5-min Rain = 0
KDC1 080616Z 29006KT 05/03 A3014 RMK A01 T00460034  RH  092%=      5-min Rain = 0
KDC1 080617Z 29006KT 05/03 A3014 RMK A01 T00460034  RH  092%=      5-min Rain = 0
KDC1 080618Z 29006KT 05/04 A3014 RMK A01 T00460035  RH  092%=      5-min Rain = 0
KDC1 080619Z 29006KT 05/04 A3014 RMK A01 T00460035  RH  093%=      5-min Rain = 0
KDC1 080620Z 29005KT 05/04 A3014 RMK A01 T00460035  RH  093%=      5-min Rain = 0
KDC1 080621Z 29005KT 05/04 A3013 RMK A01 T00460035  RH  093%=      5-min Rain = 0
KDC1 080622Z 29005KT 05/04 A3013 RMK A01 T00470036  RH  093%=      5-min Rain = 0
KDC1 080623Z 29005KT 05/04 A3013 RMK A01 T00480037  RH  093%=      5-min Rain = 0
KDC1 080624Z 29005KT 05/04 A3013 RMK A01 T00480038  RH  093%=      5-min Rain = 0
KDC1 080625Z 29005KT 05/04 A3013 RMK A01 T00480037  RH  092%=      5-min Rain = 0
KDC1 080626Z 29006KT 05/04 A3013 RMK A01 T00480036  RH  092%=      5-min Rain = 0
KDC1 080627Z 30006KT 05/04 A3013 RMK A01 T00470035  RH  092%=      5-min Rain = 0
KDC1 080628Z 30006KT 05/03 A3013 RMK A01 T00460033  RH  092%=      5-min Rain = 0
KDC1 080629Z 29007KT 05/03 A3013 RMK A01 T00450033  RH  092%=      5-min Rain = 0
KDC1 080630Z 29007KT 05/03 A3013 RMK A01 T00460034  RH  092%=      5-min Rain = 0
KDC1 080631Z 30007KT 05/04 A3013 RMK A01 T00460035  RH  092%=      5-min Rain = 0
KDC1 080632Z 30007KT 05/04 A3013 RMK A01 T00460035  RH  092%=      5-min Rain = 0
KDC1 080633Z 30007KT 05/04 A3013 RMK A01 T00460035  RH  092%=      5-min Rain = 0
KDC1 080634Z 29007KT 05/04 A3013 RMK A01 T00460035  RH  092%=      5-min Rain = 0
KDC1 080635Z 29005KT 05/04 A3013 RMK A01 T00460035  RH  092%=      5-min Rain = 0
KDC1 080636Z 29005KT 05/03 A3013 RMK A01 T00460034  RH  092%=      5-min Rain = 0
KDC1 080637Z 28005KT 05/03 A3013 RMK A01 T00450034  RH  092%=      5-min Rain = 0
KDC1 080638Z 28005KT 05/04 A3013 RMK A01 T00450035  RH  093%=      5-min Rain = 0
KDC1 080639Z 29005KT 05/04 A3013 RMK A01 T00450035  RH  093%=      5-min Rain = 0
KDC1 080640Z 30004KT 05/04 A3013 RMK A01 T00450035  RH  093%=      5-min Rain = 0
KDC1 080641Z 29003KT 05/03 A3013 RMK A01 T00450034  RH  093%=      5-min Rain = 0
KDC1 080642Z 29003KT 05/03 A3013 RMK A01 T00450034  RH  093%=      5-min Rain = 0
KDC1 080643Z 30003KT 04/03 A3013 RMK A01 T00440034  RH  093%=      5-min Rain = 0
KDC1 080644Z 30004KT 04/03 A3013 RMK A01 T00440033  RH  093%=      5-min Rain = 0
KDC1 080645Z 29004KT 04/03 A3013 RMK A01 T00440033  RH  093%=      5-min Rain = 0
KDC1 080646Z 29004KT 04/03 A3013 RMK A01 T00430033  RH  093%=      5-min Rain = 0
KDC1 080647Z 30004KT 04/03 A3013 RMK A01 T00430032  RH  093%=      5-min Rain = 0
KDC1 080648Z 29004KT 04/03 A3013 RMK A01 T00420032  RH  093%=      5-min Rain = 0
KDC1 080649Z 29003KT 04/03 A3013 RMK A01 T00420032  RH  093%=      5-min Rain = 0
KDC1 080650Z 28003KT 04/03 A3013 RMK A01 T00420032  RH  093%=      5-min Rain = 0
KDC1 080651Z 29003KT 04/03 A3013 RMK A01 T00420032  RH  094%=      5-min Rain = 0
KDC1 080652Z 29003KT 04/03 A3013 RMK A01 T00420033  RH  094%=      5-min Rain = 0
KDC1 080653Z 30002KT 04/03 A3013 RMK A01 T00420033  RH  094%=      5-min Rain = 0
KDC1 080654Z 29002KT 04/03 A3013 RMK A01 T00430034  RH  094%=      5-min Rain = 0
KDC1 080655Z 29002KT 04/03 A3013 RMK A01 T00430034  RH  094%=      5-min Rain = 0
KDC1 080656Z 29003KT 04/03 A3013 RMK A01 T00430034  RH  094%=      5-min Rain = 0
KDC1 080657Z 28003KT 04/03 A3013 RMK A01 T00430034  RH  094%=      5-min Rain = 0
KDC1 080658Z 28003KT 04/03 A3013 RMK A01 T00430034  RH  094%=      5-min Rain = 0
KDC1 080659Z 29003KT 04/03 A3013 RMK A01 T00430034  RH  094%=      5-min Rain = 0
KDC1 080700Z 29004KT 04/03 A3013 RMK A01 T00440034  RH  094%=      5-min Rain = 0
KDC1 080701Z 28004KT 04/03 A3013 RMK A01 T00430034  RH  093%=      5-min Rain = 0
KDC1 080702Z 28003KT 04/03 A3013 RMK A01 T00440034  RH  093%=      5-min Rain = 0
KDC1 080703Z 28003KT 05/04 A3013 RMK A01 T00450035  RH  094%=      5-min Rain = 0
KDC1 080704Z 29003KT 05/04 A3013 RMK A01 T00460036  RH  094%=      5-min Rain = 0
KDC1 080705Z 29004KT 05/04 A3012 RMK A01 T00460037  RH  093%=      5-min Rain = 0
KDC1 080706Z 29004KT 05/04 A3012 RMK A01 T00470036  RH  093%=      5-min Rain = 0
KDC1 080707Z 29005KT 05/04 A3012 RMK A01 T00470035  RH  092%=      5-min Rain = 0
KDC1 080708Z 29005KT 05/04 A3013 RMK A01 T00470035  RH  092%=      5-min Rain = 0
KDC1 080709Z 29005KT 05/03 A3013 RMK A01 T00460034  RH  092%=      5-min Rain = 0
KDC1 080710Z 29005KT 05/03 A3013 RMK A01 T00450033  RH  092%=      5-min Rain = 0
KDC1 080711Z 29005KT 05/03 A3013 RMK A01 T00450033  RH  092%=      5-min Rain = 0
KDC1 080712Z 29006KT 04/03 A3013 RMK A01 T00440033  RH  092%=      5-min Rain = 0
KDC1 080713Z 29006KT 04/03 A3013 RMK A01 T00440033  RH  093%=      5-min Rain = 0
KDC1 080714Z 30007KT 04/03 A3013 RMK A01 T00440033  RH  093%=      5-min Rain = 0
KDC1 080715Z 30007KT 04/03 A3013 RMK A01 T00440033  RH  093%=      5-min Rain = 0
KDC1 080716Z 30007KT 04/03 A3013 RMK A01 T00430032  RH  093%=      5-min Rain = 0
KDC1 080717Z 30006KT 04/03 A3013 RMK A01 T00430032  RH  092%=      5-min Rain = 0
KDC1 080718Z 29006KT 04/03 A3013 RMK A01 T00440033  RH  093%=      5-min Rain = 0
KDC1 080719Z 29006KT 04/03 A3013 RMK A01 T00430032  RH  093%=      5-min Rain = 0
KDC1 080720Z 29005KT 04/03 A3013 RMK A01 T00430032  RH  092%=      5-min Rain = 0
KDC1 080721Z 29005KT 04/03 A3013 RMK A01 T00430032  RH  092%=      5-min Rain = 0
KDC1 080722Z 28005KT 04/03 A3013 RMK A01 T00440033  RH  092%=      5-min Rain = 0
KDC1 080723Z 28005KT 04/03 A3013 RMK A01 T00430032  RH  093%=      5-min Rain = 0
KDC1 080724Z 29005KT 04/03 A3013 RMK A01 T00440033  RH  093%=      5-min Rain = 0
KDC1 080725Z 28005KT 04/03 A3013 RMK A01 T00430033  RH  093%=      5-min Rain = 0
KDC1 080726Z 28004KT 04/03 A3013 RMK A01 T00440034  RH  093%=      5-min Rain = 0
KDC1 080727Z 28004KT 04/03 A3013 RMK A01 T00440034  RH  093%=      5-min Rain = 0
KDC1 080728Z 27004KT 05/04 A3013 RMK A01 T00450035  RH  093%=      5-min Rain = 0
KDC1 080729Z 27004KT 05/04 A3012 RMK A01 T00460036  RH  093%=      5-min Rain = 0
KDC1 080730Z 27005KT 05/04 A3012 RMK A01 T00480038  RH  093%=      5-min Rain = 0
KDC1 080731Z 27004KT 05/04 A3012 RMK A01 T00490038  RH  093%=      5-min Rain = 0
KDC1 080732Z 29004KT 05/04 A3012 RMK A01 T00490038  RH  092%=      5-min Rain = 0
KDC1 080733Z 28004KT 05/04 A3012 RMK A01 T00500038  RH  092%=      5-min Rain = 0
KDC1 080734Z 28004KT 05/04 A3012 RMK A01 T00500037  RH  091%=      5-min Rain = 0
KDC1 080735Z 28004KT 05/04 A3012 RMK A01 T00490036  RH  091%=      5-min Rain = 0
KDC1 080736Z 26004KT 05/04 A3012 RMK A01 T00490036  RH  091%=      5-min Rain = 0
KDC1 080737Z 27004KT 05/04 A3012 RMK A01 T00500036  RH  091%=      5-min Rain = 0
KDC1 080738Z 27003KT 05/04 A3012 RMK A01 T00500036  RH  091%=      5-min Rain = 0
KDC1 080739Z 28003KT 05/04 A3012 RMK A01 T00490036  RH  091%=      5-min Rain = 0
KDC1 080740Z 31002KT 05/04 A3011 RMK A01 T00490035  RH  091%=      5-min Rain = 0
KDC1 080741Z 25003KT 05/04 A3011 RMK A01 T00490035  RH  091%=      5-min Rain = 0
KDC1 080742Z 25002KT 05/04 A3011 RMK A01 T00480035  RH  091%=      5-min Rain = 0
KDC1 080743Z 25001KT 05/04 A3011 RMK A01 T00480035  RH  091%=      5-min Rain = 0
KDC1 080744Z 29001KT 05/03 A3011 RMK A01 T00480034  RH  091%=      5-min Rain = 0
KDC1 080745Z 26001KT 05/03 A3011 RMK A01 T00470034  RH  091%=      5-min Rain = 0
KDC1 080746Z 24001KT 05/03 A3011 RMK A01 T00470033  RH  091%=      5-min Rain = 0
KDC1 080747Z 22000KT 05/03 A3011 RMK A01 T00460033  RH  091%=      5-min Rain = 0
KDC1 080748Z 00000KT 05/03 A3011 RMK A01 T00460033  RH  091%=      5-min Rain = 0
KDC1 080749Z 12001KT 05/03 A3011 RMK A01 T00460033  RH  091%=      5-min Rain = 0
KDC1 080750Z 10000KT 05/03 A301 RMK A01 T00460033  RH  092%=      5-min Rain = 0
KDC1 080751Z 00000KT 05/03 A3011 RMK A01 T00450033  RH  092%=      5-min Rain = 0
KDC1 080752Z 12000KT 05/03 A3011 RMK A01 T00450032  RH  091%=      5-min Rain = 0
KDC1 080753Z 12001KT 04/03 A301 RMK A01 T00440031  RH  091%=      5-min Rain = 0
KDC1 080754Z 13000KT 04/03 A301 RMK A01 T00430030  RH  091%=      5-min Rain = 0
KDC1 080755Z 14000KT 04/03 A301 RMK A01 T00410027  RH  091%=      5-min Rain = 0
KDC1 080756Z 14001KT 04/03 A301 RMK A01 T00400027  RH  091%=      5-min Rain = 0
KDC1 080757Z 11001KT 04/03 A3011 RMK A01 T00380026  RH  092%=      5-min Rain = 0
KDC1 080758Z 12000KT 04/03 A3011 RMK A01 T00380026  RH  092%=      5-min Rain = 0
KDC1 080759Z 11001KT 04/03 A3011 RMK A01 T00380026  RH  092%=      5-min Rain = 0
KDC1 080800Z 09002KT 04/03 A3011 RMK A01 T00380027  RH  093%=      5-min Rain = 0
KDC1 080801Z 09002KT 04/03 A3011 RMK A01 T00370027  RH  093%=      5-min Rain = 0
KDC1 080802Z 09001KT 04/03 A3011 RMK A01 T00380028  RH  094%=      5-min Rain = 0
KDC1 080803Z 10000KT 04/03 A3011 RMK A01 T00380029  RH  094%=      5-min Rain = 0
KDC1 080804Z 00000KT 04/03 A3011 RMK A01 T00380029  RH  094%=      5-min Rain = 0
KDC1 080805Z 06000KT 04/03 A3011 RMK A01 T00380029  RH  094%=      5-min Rain = 0
KDC1 080806Z 07001KT 04/03 A3011 RMK A01 T00380029  RH  094%=      5-min Rain = 0
KDC1 080807Z 10000KT 04/03 A3011 RMK A01 T00380030  RH  094%=      5-min Rain = 0
KDC1 080808Z 12001KT 04/03 A3012 RMK A01 T00380030  RH  094%=      5-min Rain = 0
KDC1 080809Z 12000KT 04/03 A3012 RMK A01 T00380030  RH  095%=      5-min Rain = 0
KDC1 080810Z 11000KT 04/03 A3012 RMK A01 T00380030  RH  095%=      5-min Rain = 0
KDC1 080811Z 00000KT 04/03 A3012 RMK A01 T00380030  RH  095%=      5-min Rain = 0
KDC1 080812Z 34001KT 04/03 A3011 RMK A01 T00380030  RH  095%=      5-min Rain = 0
KDC1 080813Z 35003KT 04/03 A3011 RMK A01 T00390031  RH  095%=      5-min Rain = 0
KDC1 080814Z 34003KT 04/03 A3011 RMK A01 T00390032  RH  095%=      5-min Rain = 0
KDC1 080815Z 35003KT 04/03 A3011 RMK A01 T00400033  RH  095%=      5-min Rain = 0
KDC1 080816Z 36002KT 04/03 A3011 RMK A01 T00410033  RH  095%=      5-min Rain = 0
KDC1 080817Z 35002KT 04/03 A3011 RMK A01 T00390030  RH  094%=      5-min Rain = 0
KDC1 080818Z 33002KT 04/03 A3011 RMK A01 T00370028  RH  093%=      5-min Rain = 0
KDC1 080819Z 33002KT 04/03 A3011 RMK A01 T00360026  RH  093%=      5-min Rain = 0
KDC1 080820Z 33002KT 04/03 A3012 RMK A01 T00360027  RH  094%=      5-min Rain = 0
KDC1 080821Z 30000KT 04/03 A3012 RMK A01 T00360027  RH  094%=      5-min Rain = 0
KDC1 080822Z 21000KT 04/03 A3012 RMK A01 T00360028  RH  094%=      5-min Rain = 0
KDC1 080823Z 22001KT 04/03 A3012 RMK A01 T00370029  RH  095%=      5-min Rain = 0
KDC1 080824Z 24001KT 04/03 A3012 RMK A01 T00380030  RH  095%=      5-min Rain = 0
KDC1 080825Z 28001KT 04/03 A3012 RMK A01 T00380030  RH  095%=      5-min Rain = 0
KDC1 080826Z 32001KT 04/03 A3012 RMK A01 T00390031  RH  095%=      5-min Rain = 0
KDC1 080827Z 31000KT 04/03 A3012 RMK A01 T00390031  RH  094%=      5-min Rain = 0
KDC1 080828Z 00000KT 04/03 A3012 RMK A01 T00380030  RH  094%=      5-min Rain = 0
KDC1 080829Z 00000KT 04/03 A3012 RMK A01 T00370028  RH  094%=      5-min Rain = 0
KDC1 080830Z 27001KT 04/03 A3012 RMK A01 T00370027  RH  094%=      5-min Rain = 0
KDC1 080831Z 28001KT 04/03 A3012 RMK A01 T00360027  RH  094%=      5-min Rain = 0
KDC1 080832Z 28000KT 04/03 A3012 RMK A01 T00350026  RH  094%=      5-min Rain = 0
KDC1 080833Z 30001KT 04/03 A3012 RMK A01 T00350026  RH  094%=      5-min Rain = 0
KDC1 080834Z 30001KT 03/03 A3012 RMK A01 T00340025  RH  094%=      5-min Rain = 0
KDC1 080835Z 28001KT 03/03 A3012 RMK A01 T00340025  RH  094%=      5-min Rain = 0
KDC1 080836Z 28001KT 03/03 A3012 RMK A01 T00340025  RH  094%=      5-min Rain = 0
KDC1 080837Z 28001KT 03/03 A3012 RMK A01 T00340026  RH  094%=      5-min Rain = 0
KDC1 080838Z 27002KT 04/03 A3012 RMK A01 T00350027  RH  095%=      5-min Rain = 0
KDC1 080839Z 28001KT 04/03 A3011 RMK A01 T00370030  RH  095%=      5-min Rain = 0
KDC1 080840Z 26001KT 04/03 A3011 RMK A01 T00380031  RH  095%=      5-min Rain = 0
KDC1 080841Z 24001KT 04/03 A3011 RMK A01 T00380030  RH  095%=      5-min Rain = 0
KDC1 080842Z 25000KT 04/03 A3011 RMK A01 T00370029  RH  094%=      5-min Rain = 0
KDC1 080843Z 00000KT 04/03 A3011 RMK A01 T00350026  RH  094%=      5-min Rain = 0
KDC1 080844Z 24000KT 04/03 A3011 RMK A01 T00350026  RH  094%=      5-min Rain = 0
KDC1 080845Z 25001KT 04/03 A3011 RMK A01 T00350026  RH  094%=      5-min Rain = 0
KDC1 080846Z 25001KT 04/03 A3011 RMK A01 T00350026  RH  094%=      5-min Rain = 0
KDC1 080847Z 26000KT 04/03 A3011 RMK A01 T00350026  RH  094%=      5-min Rain = 0
KDC1 080848Z 29001KT 04/03 A3011 RMK A01 T00350027  RH  094%=      5-min Rain = 0
KDC1 080849Z 31001KT 04/03 A3012 RMK A01 T00350027  RH  094%=      5-min Rain = 0
KDC1 080850Z 29002KT 04/03 A3012 RMK A01 T00350027  RH  095%=      5-min Rain = 0
KDC1 080851Z 29002KT 04/03 A3012 RMK A01 T00360028  RH  095%=      5-min Rain = 0
KDC1 080852Z 28002KT 04/03 A3011 RMK A01 T00360028  RH  095%=      5-min Rain = 0
KDC1 080853Z 26003KT 04/03 A3012 RMK A01 T00360028  RH  094%=      5-min Rain = 0
KDC1 080854Z 26002KT 04/03 A3012 RMK A01 T00360027  RH  094%=      5-min Rain = 0
KDC1 080855Z 26002KT 04/03 A3011 RMK A01 T00350027  RH  094%=      5-min Rain = 0
KDC1 080856Z 27002KT 04/03 A3011 RMK A01 T00350026  RH  094%=      5-min Rain = 0
KDC1 080857Z 27002KT 04/03 A3011 RMK A01 T00350027  RH  094%=      5-min Rain = 0
KDC1 080858Z 28002KT 04/03 A3011 RMK A01 T00360028  RH  094%=      5-min Rain = 0
KDC1 080859Z 30002KT 04/03 A3011 RMK A01 T00360028  RH  095%=      5-min Rain = 0
KDC1 080900Z 28003KT 04/03 A3011 RMK A01 T00360029  RH  095%=      5-min Rain = 0
KDC1 080901Z 30004KT 04/03 A3011 RMK A01 T00370029  RH  095%=      5-min Rain = 0
KDC1 080902Z 30004KT 04/03 A3011 RMK A01 T00380030  RH  095%=      5-min Rain = 0
KDC1 080903Z 30004KT 04/03 A3011 RMK A01 T00380031  RH  095%=      5-min Rain = 0
KDC1 080904Z 30004KT 04/03 A3011 RMK A01 T00400032  RH  095%=      5-min Rain = 0
KDC1 080905Z 29004KT 04/03 A3011 RMK A01 T00420034  RH  094%=      5-min Rain = 0
KDC1 080906Z 29004KT 04/03 A3011 RMK A01 T00430034  RH  094%=      5-min Rain = 0
KDC1 080907Z 29004KT 04/04 A3011 RMK A01 T00440035  RH  094%=      5-min Rain = 0
KDC1 080908Z 29004KT 05/04 A301 RMK A01 T00450035  RH  093%=      5-min Rain = 0
KDC1 080909Z 28003KT 05/03 A301 RMK A01 T00460034  RH  092%=      5-min Rain = 0
KDC1 080910Z 28004KT 05/03 A301 RMK A01 T00460034  RH  092%=      5-min Rain = 0
KDC1 080911Z 27004KT 05/03 A301 RMK A01 T00460034  RH  092%=      5-min Rain = 0
KDC1 080912Z 27004KT 05/03 A301 RMK A01 T00460034  RH  092%=      5-min Rain = 0
KDC1 080913Z 27003KT 05/04 A301 RMK A01 T00470035  RH  092%=      5-min Rain = 0
KDC1 080914Z 27003KT 05/04 A301 RMK A01 T00480036  RH  092%=      5-min Rain = 0
KDC1 080915Z 27003KT 05/04 A301 RMK A01 T00490036  RH  092%=      5-min Rain = 0
KDC1 080916Z 27001KT 05/04 A301 RMK A01 T00490037  RH  092%=      5-min Rain = 0
KDC1 080917Z 23000KT 05/04 A301 RMK A01 T00510038  RH  091%=      5-min Rain = 0
KDC1 080918Z 24000KT 05/04 A301 RMK A01 T00520038  RH  091%=      5-min Rain = 0
KDC1 080919Z 24001KT 05/04 A301 RMK A01 T00530038  RH  091%=      5-min Rain = 0
KDC1 080920Z 28001KT 05/04 A301 RMK A01 T00530039  RH  090%=      5-min Rain = 0
KDC1 080921Z 29002KT 05/04 A301 RMK A01 T00540038  RH  090%=      5-min Rain = 0
KDC1 080922Z 29002KT 05/04 A301 RMK A01 T00540038  RH  089%=      5-min Rain = 0
KDC1 080923Z 29002KT 06/04 A301 RMK A01 T00550038  RH  089%=      5-min Rain = 0
KDC1 080924Z 29003KT 06/04 A301 RMK A01 T00550038  RH  089%=      5-min Rain = 0
KDC1 080925Z 28002KT 06/04 A301 RMK A01 T00550038  RH  089%=      5-min Rain = 0
KDC1 080926Z 27002KT 05/04 A301 RMK A01 T00540037  RH  089%=      5-min Rain = 0
KDC1 080927Z 27001KT 05/04 A301 RMK A01 T00540036  RH  089%=      5-min Rain = 0
KDC1 080928Z 27000KT 05/04 A301 RMK A01 T00530036  RH  089%=      5-min Rain = 0
KDC1 080929Z 34001KT 05/04 A301 RMK A01 T00530036  RH  089%=      5-min Rain = 0
KDC1 080930Z 33002KT 05/04 A301 RMK A01 T00520036  RH  089%=      5-min Rain = 0
KDC1 080931Z 33001KT 05/04 A301 RMK A01 T00520036  RH  089%=      5-min Rain = 0
KDC1 080932Z 35001KT 05/04 A301 RMK A01 T00520036  RH  090%=      5-min Rain = 0
KDC1 080933Z 33001KT 05/04 A301 RMK A01 T00520037  RH  090%=      5-min Rain = 0
KDC1 080934Z 35002KT 05/04 A301 RMK A01 T00520036  RH  090%=      5-min Rain = 0
KDC1 080935Z 00003KT 05/04 A301 RMK A01 T00510035  RH  089%=      5-min Rain = 0
KDC1 080936Z 01002KT 05/03 A301 RMK A01 T00490033  RH  089%=      5-min Rain = 0
KDC1 080937Z 01002KT 05/03 A301 RMK A01 T00480032  RH  089%=      5-min Rain = 0
KDC1 080938Z 01002KT 05/03 A301 RMK A01 T00470032  RH  090%=      5-min Rain = 0
KDC1 080939Z 36002KT 05/03 A301 RMK A01 T00470033  RH  091%=      5-min Rain = 0
KDC1 080940Z 34002KT 05/03 A301 RMK A01 T00460033  RH  091%=      5-min Rain = 0
KDC1 080941Z 33003KT 05/03 A301 RMK A01 T00450032  RH  091%=      5-min Rain = 0
KDC1 080942Z 33003KT 05/03 A301 RMK A01 T00450033  RH  092%=      5-min Rain = 0
KDC1 080943Z 32004KT 05/03 A301 RMK A01 T00450033  RH  092%=      5-min Rain = 0
KDC1 080944Z 32004KT 05/03 A3009 RMK A01 T00450033  RH  092%=      5-min Rain = 0
KDC1 080945Z 32004KT 05/03 A3009 RMK A01 T00450034  RH  092%=      5-min Rain = 0
KDC1 080946Z 32004KT 04/03 A3009 RMK A01 T00440033  RH  092%=      5-min Rain = 0
KDC1 080947Z 32004KT 04/03 A3009 RMK A01 T00440033  RH  093%=      5-min Rain = 0
KDC1 080948Z 32004KT 04/03 A3009 RMK A01 T00440033  RH  093%=      5-min Rain = 0
KDC1 080949Z 32004KT 04/03 A3009 RMK A01 T00430032  RH  093%=      5-min Rain = 0
KDC1 080950Z 31004KT 04/03 A3009 RMK A01 T00430032  RH  093%=      5-min Rain = 0
KDC1 080951Z 32004KT 04/03 A3009 RMK A01 T00420031  RH  093%=      5-min Rain = 0
KDC1 080952Z 32004KT 04/03 A3009 RMK A01 T00420031  RH  093%=      5-min Rain = 0
KDC1 080953Z 31003KT 04/03 A3009 RMK A01 T00420031  RH  093%=      5-min Rain = 0
KDC1 080954Z 32003KT 04/03 A3009 RMK A01 T00410030  RH  093%=      5-min Rain = 0
KDC1 080955Z 32003KT 04/03 A3008 RMK A01 T00410030  RH  093%=      5-min Rain = 0
KDC1 080956Z 31002KT 04/03 A3008 RMK A01 T00400030  RH  093%=      5-min Rain = 0
KDC1 080957Z 31001KT 04/03 A3008 RMK A01 T00400030  RH  093%=      5-min Rain = 0
KDC1 080958Z 31000KT 04/03 A3008 RMK A01 T00400030  RH  093%=      5-min Rain = 0
KDC1 080959Z 00000KT 04/03 A3008 RMK A01 T00380027  RH  093%=      5-min Rain = 0
KDC1 081000Z 00000KT 04/03 A3008 RMK A01 T00380028  RH  093%=      5-min Rain = 0
KDC1 081001Z 04001KT 04/03 A3008 RMK A01 T00380029  RH  094%=      5-min Rain = 0
KDC1 081002Z 05001KT 04/03 A3008 RMK A01 T00380029  RH  094%=      5-min Rain = 0
KDC1 081003Z 06001KT 04/03 A3009 RMK A01 T00380029  RH  094%=      5-min Rain = 0
KDC1 081004Z 05001KT 04/03 A3009 RMK A01 T00380029  RH  094%=      5-min Rain = 0
KDC1 081005Z 02002KT 04/03 A3009 RMK A01 T00380028  RH  094%=      5-min Rain = 0
KDC1 081006Z 01002KT 04/03 A3009 RMK A01 T00380028  RH  094%=      5-min Rain = 0
KDC1 081007Z 02003KT 04/03 A3009 RMK A01 T00370028  RH  094%=      5-min Rain = 0
KDC1 081008Z 00004KT 04/03 A3009 RMK A01 T00370028  RH  094%=      5-min Rain = 0
KDC1 081009Z 01004KT 04/03 A3009 RMK A01 T00370029  RH  094%=      5-min Rain = 0
KDC1 081010Z 01005KT 04/03 A3009 RMK A01 T00380030  RH  095%=      5-min Rain = 0
KDC1 081011Z 00006KT 04/03 A3009 RMK A01 T00380030  RH  095%=      5-min Rain = 0
KDC1 081012Z 36005KT 04/03 A3009 RMK A01 T00380030  RH  094%=      5-min Rain = 0
KDC1 081013Z 36006KT 04/03 A3008 RMK A01 T00380030  RH  094%=      5-min Rain = 0
KDC1 081014Z 35005KT 04/03 A3008 RMK A01 T00390031  RH  095%=      5-min Rain = 0
KDC1 081015Z 35005KT 04/03 A3009 RMK A01 T00400032  RH  095%=      5-min Rain = 0
KDC1 081016Z 36006KT 04/03 A3008 RMK A01 T00400031  RH  094%=      5-min Rain = 0
KDC1 081017Z 00006KT 04/03 A3008 RMK A01 T00400032  RH  094%=      5-min Rain = 0
KDC1 081018Z 01005KT 04/03 A3008 RMK A01 T00410032  RH  094%=      5-min Rain = 0
KDC1 081019Z 00005KT 04/03 A3008 RMK A01 T00410032  RH  094%=      5-min Rain = 0
KDC1 081020Z 00004KT 04/03 A3008 RMK A01 T00410031  RH  093%=      5-min Rain = 0
KDC1 081021Z 01005KT 04/03 A3009 RMK A01 T00400030  RH  093%=      5-min Rain = 0
KDC1 081022Z 01006KT 04/03 A3008 RMK A01 T00400029  RH  093%=      5-min Rain = 0
KDC1 081023Z 00006KT 04/03 A3008 RMK A01 T00390029  RH  093%=      5-min Rain = 0
KDC1 081024Z 00006KT 04/03 A3008 RMK A01 T00390029  RH  093%=      5-min Rain = 0
KDC1 081025Z 01006KT 04/03 A3008 RMK A01 T00390029  RH  093%=      5-min Rain = 0
KDC1 081026Z 36006KT 04/03 A3008 RMK A01 T00400030  RH  094%=      5-min Rain = 0
KDC1 081027Z 36006KT 04/03 A3008 RMK A01 T00410031  RH  094%=      5-min Rain = 0
KDC1 081028Z 00006KT 04/03 A3008 RMK A01 T00410032  RH  094%=      5-min Rain = 0
KDC1 081029Z 35005KT 04/03 A3008 RMK A01 T00410031  RH  093%=      5-min Rain = 0
KDC1 081030Z 35005KT 04/03 A3008 RMK A01 T00410031  RH  093%=      5-min Rain = 0
KDC1 081031Z 35006KT 04/03 A3008 RMK A01 T00410031  RH  093%=      5-min Rain = 0
KDC1 081032Z 34006KT 04/03 A3008 RMK A01 T00410031  RH  093%=      5-min Rain = 0
KDC1 081033Z 35006KT 04/03 A3008 RMK A01 T00410030  RH  093%=      5-min Rain = 0
KDC1 081034Z 34006KT 04/03 A3009 RMK A01 T00410030  RH  093%=      5-min Rain = 0
KDC1 081035Z 34007KT 04/03 A3009 RMK A01 T00410031  RH  093%=      5-min Rain = 0
KDC1 081036Z 34006KT 04/03 A3009 RMK A01 T00410030  RH  093%=      5-min Rain = 0
KDC1 081037Z 35006KT 04/03 A3009 RMK A01 T00400029  RH  092%=      5-min Rain = 0
KDC1 081038Z 33006KT 04/03 A3009 RMK A01 T00400029  RH  093%=      5-min Rain = 0
KDC1 081039Z 33006KT 04/03 A3009 RMK A01 T00400029  RH  093%=      5-min Rain = 0
KDC1 081040Z 35005KT 04/03 A3009 RMK A01 T00390028  RH  093%=      5-min Rain = 0
KDC1 081041Z 35005KT 04/03 A3009 RMK A01 T00390028  RH  093%=      5-min Rain = 0
KDC1 081042Z 34004KT 04/03 A3008 RMK A01 T00400030  RH  093%=      5-min Rain = 0
KDC1 081043Z 33005KT 04/03 A3008 RMK A01 T00400031  RH  093%=      5-min Rain = 0
KDC1 081044Z 34005KT 04/03 A3008 RMK A01 T00410031  RH  093%=      5-min Rain = 0
KDC1 081045Z 34004KT 04/03 A3008 RMK A01 T00410031  RH  093%=      5-min Rain = 0
KDC1 081046Z 35004KT 04/03 A3008 RMK A01 T00420031  RH  093%=      5-min Rain = 0
KDC1 081047Z 34005KT 04/03 A3008 RMK A01 T00420031  RH  093%=      5-min Rain = 0
KDC1 081048Z 34005KT 04/03 A3008 RMK A01 T00420031  RH  093%=      5-min Rain = 0
KDC1 081049Z 34003KT 04/03 A3008 RMK A01 T00420030  RH  093%=      5-min Rain = 0
KDC1 081050Z 34002KT 04/03 A3008 RMK A01 T00420030  RH  093%=      5-min Rain = 0
KDC1 081051Z 33003KT 04/03 A3008 RMK A01 T00420030  RH  092%=      5-min Rain = 0
KDC1 081052Z 32004KT 04/03 A3008 RMK A01 T00410030  RH  092%=      5-min Rain = 0
KDC1 081053Z 34003KT 04/03 A3008 RMK A01 T00400029  RH  092%=      5-min Rain = 0
KDC1 081054Z 35002KT 04/03 A3008 RMK A01 T00400029  RH  093%=      5-min Rain = 0
KDC1 081055Z 31002KT 04/03 A3008 RMK A01 T00390028  RH  093%=      5-min Rain = 0
KDC1 081056Z 31003KT 04/03 A3008 RMK A01 T00400029  RH  093%=      5-min Rain = 0
KDC1 081057Z 32003KT 04/03 A3008 RMK A01 T00400030  RH  093%=      5-min Rain = 0
KDC1 081058Z 32003KT 04/03 A3008 RMK A01 T00410031  RH  093%=      5-min Rain = 0
KDC1 081059Z 31002KT 04/03 A3008 RMK A01 T00420031  RH  093%=      5-min Rain = 0
KDC1 081100Z 30002KT 04/03 A3008 RMK A01 T00420031  RH  093%=      5-min Rain = 0
KDC1 081101Z 29002KT 04/03 A3008 RMK A01 T00430032  RH  093%=      5-min Rain = 0
KDC1 081102Z 28002KT 04/03 A3008 RMK A01 T00430031  RH  092%=      5-min Rain = 0
KDC1 081103Z 28001KT 04/03 A3008 RMK A01 T00420031  RH  092%=      5-min Rain = 0
KDC1 081104Z 30002KT 04/03 A3008 RMK A01 T00420030  RH  092%=      5-min Rain = 0
KDC1 081105Z 30002KT 04/03 A3008 RMK A01 T00420031  RH  092%=      5-min Rain = 0
KDC1 081106Z 27002KT 04/03 A3008 RMK A01 T00430031  RH  092%=      5-min Rain = 0
KDC1 081107Z 30002KT 04/03 A3008 RMK A01 T00430030  RH  091%=      5-min Rain = 0
KDC1 081108Z 31002KT 04/03 A3008 RMK A01 T00420029  RH  091%=      5-min Rain = 0
KDC1 081109Z 28003KT 04/03 A3008 RMK A01 T00410028  RH  091%=      5-min Rain = 0
KDC1 081110Z 30002KT 04/03 A3008 RMK A01 T00400027  RH  091%=      5-min Rain = 0
KDC1 081111Z 30002KT 04/03 A3008 RMK A01 T00390027  RH  092%=      5-min Rain = 0
KDC1 081112Z 28002KT 04/03 A3008 RMK A01 T00390028  RH  092%=      5-min Rain = 0
KDC1 081113Z 29002KT 04/03 A3008 RMK A01 T00390028  RH  092%=      5-min Rain = 0
KDC1 081114Z 30003KT 04/03 A3008 RMK A01 T00400029  RH  093%=      5-min Rain = 0
KDC1 081115Z 30002KT 04/03 A3008 RMK A01 T00400030  RH  093%=      5-min Rain = 0
KDC1 081116Z 30003KT 04/03 A3008 RMK A01 T00410030  RH  092%=      5-min Rain = 0
KDC1 081117Z 32003KT 04/03 A3008 RMK A01 T00410029  RH  092%=      5-min Rain = 0
KDC1 081118Z 32003KT 04/03 A3008 RMK A01 T00410028  RH  092%=      5-min Rain = 0
KDC1 081119Z 31003KT 04/03 A3008 RMK A01 T00400028  RH  092%=      5-min Rain = 0
KDC1 081120Z 33003KT 04/03 A3008 RMK A01 T00390027  RH  092%=      5-min Rain = 0
KDC1 081121Z 29002KT 04/03 A3008 RMK A01 T00390027  RH  092%=      5-min Rain = 0
KDC1 081122Z 28004KT 04/03 A3008 RMK A01 T00390027  RH  092%=      5-min Rain = 0
KDC1 081123Z 32004KT 04/03 A3008 RMK A01 T00390028  RH  092%=      5-min Rain = 0
KDC1 081124Z 30004KT 04/03 A3008 RMK A01 T00400029  RH  092%=      5-min Rain = 0
KDC1 081125Z 29004KT 04/03 A3008 RMK A01 T00400028  RH  092%=      5-min Rain = 0
KDC1 081126Z 28003KT 04/03 A3008 RMK A01 T00400027  RH  092%=      5-min Rain = 0
KDC1 081127Z 26003KT 04/03 A3008 RMK A01 T00400028  RH  092%=      5-min Rain = 0
KDC1 081128Z 27004KT 04/03 A3008 RMK A01 T00400028  RH  092%=      5-min Rain = 0
KDC1 081129Z 27005KT 04/03 A3008 RMK A01 T00400028  RH  092%=      5-min Rain = 0
KDC1 081130Z 25004KT 04/03 A3008 RMK A01 T00400028  RH  092%=      5-min Rain = 0
KDC1 081131Z 25003KT 04/03 A3008 RMK A01 T00400029  RH  092%=      5-min Rain = 0
KDC1 081132Z 26004KT 04/03 A3008 RMK A01 T00400029  RH  092%=      5-min Rain = 0
KDC1 081133Z 27003KT 04/03 A3008 RMK A01 T00400029  RH  092%=      5-min Rain = 0
KDC1 081134Z 25004KT 04/03 A3008 RMK A01 T00400029  RH  092%=      5-min Rain = 0
KDC1 081135Z 25005KT 04/03 A3008 RMK A01 T00400029  RH  092%=      5-min Rain = 0
KDC1 081136Z 25004KT 04/03 A3008 RMK A01 T00400029  RH  092%=      5-min Rain = 0
KDC1 081137Z 23002KT 04/03 A3007 RMK A01 T00410030  RH  092%=      5-min Rain = 0
KDC1 081138Z 25003KT 04/03 A3007 RMK A01 T00420032  RH  093%=      5-min Rain = 0
KDC1 081139Z 25004KT 04/03 A3007 RMK A01 T00430031  RH  092%=      5-min Rain = 0
KDC1 081140Z 24002KT 04/03 A3007 RMK A01 T00430030  RH  092%=      5-min Rain = 0
KDC1 081141Z 23002KT 04/03 A3007 RMK A01 T00430031  RH  092%=      5-min Rain = 0
KDC1 081142Z 23004KT 04/03 A3007 RMK A01 T00430031  RH  092%=      5-min Rain = 0
KDC1 081143Z 24004KT 04/03 A3007 RMK A01 T00430031  RH  092%=      5-min Rain = 0
KDC1 081144Z 26001KT 05/03 A3007 RMK A01 T00450033  RH  092%=      5-min Rain = 0
KDC1 081145Z 00000KT 05/04 A3007 RMK A01 T00490037  RH  092%=      5-min Rain = 0
KDC1 081146Z 23003KT 05/04 A3007 RMK A01 T00510037  RH  091%=      5-min Rain = 0
KDC1 081147Z 25002KT 05/04 A3007 RMK A01 T00520035  RH  089%=      5-min Rain = 0
KDC1 081148Z 29002KT 05/03 A3007 RMK A01 T00520034  RH  089%=      5-min Rain = 0
KDC1 081149Z 26003KT 05/03 A3008 RMK A01 T00510033  RH  088%=      5-min Rain = 0
KDC1 081150Z 24003KT 05/03 A3007 RMK A01 T00490031  RH  088%=      5-min Rain = 0
KDC1 081151Z 26003KT 05/03 A3007 RMK A01 T00470030  RH  088%=      5-min Rain = 0
KDC1 081152Z 27003KT 05/03 A3007 RMK A01 T00460030  RH  089%=      5-min Rain = 0
KDC1 081153Z 28002KT 05/03 A3007 RMK A01 T00450029  RH  089%=      5-min Rain = 0
KDC1 081154Z 25004KT 04/03 A3008 RMK A01 T00430026  RH  089%=      5-min Rain = 0
KDC1 081155Z 22005KT 04/03 A3007 RMK A01 T00410026  RH  090%=      5-min Rain = 0
KDC1 081156Z 25002KT 04/03 A3007 RMK A01 T00420029  RH  091%=      5-min Rain = 0
KDC1 081157Z 25002KT 04/03 A3007 RMK A01 T00430030  RH  092%=      5-min Rain = 0
KDC1 081158Z 24002KT 04/03 A3007 RMK A01 T00430031  RH  091%=      5-min Rain = 0
KDC1 081159Z 23003KT 04/03 A3007 RMK A01 T00430030  RH  091%=      5-min Rain = 0
KDC1 081200Z 23002KT 04/03 A3007 RMK A01 T00430030  RH  091%=      5-min Rain = 0
KDC1 081201Z 22000KT 05/03 A3007 RMK A01 T00450032  RH  091%=      5-min Rain = 0
KDC1 081202Z 00000KT 05/03 A3007 RMK A01 T00460034  RH  092%=      5-min Rain = 0
KDC1 081203Z 26001KT 05/03 A3007 RMK A01 T00470033  RH  091%=      5-min Rain = 0
KDC1 081204Z 21001KT 05/03 A3007 RMK A01 T00460031  RH  090%=      5-min Rain = 0
KDC1 081205Z 19003KT 05/03 A3007 RMK A01 T00450030  RH  090%=      5-min Rain = 0
KDC1 081206Z 21002KT 05/03 A3007 RMK A01 T00450029  RH  090%=      5-min Rain = 0
KDC1 081207Z 24002KT 05/03 A3007 RMK A01 T00450030  RH  090%=      5-min Rain = 0
KDC1 081208Z 22001KT 05/03 A3007 RMK A01 T00450029  RH  090%=      5-min Rain = 0
KDC1 081209Z 21002KT 04/03 A3007 RMK A01 T00440029  RH  090%=      5-min Rain = 0
KDC1 081210Z 20002KT 05/03 A3007 RMK A01 T00450030  RH  090%=      5-min Rain = 0
KDC1 081211Z 22002KT 04/03 A3007 RMK A01 T00440030  RH  090%=      5-min Rain = 0
KDC1 081212Z 22002KT 04/03 A3007 RMK A01 T00440030  RH  090%=      5-min Rain = 0
KDC1 081213Z 24003KT 05/03 A3007 RMK A01 T00450031  RH  091%=      5-min Rain = 0
KDC1 081214Z 21003KT 05/03 A3007 RMK A01 T00450031  RH  091%=      5-min Rain = 0
KDC1 081215Z 18003KT 05/03 A3007 RMK A01 T00460032  RH  091%=      5-min Rain = 0
KDC1 081216Z 18003KT 05/03 A3007 RMK A01 T00460032  RH  090%=      5-min Rain = 0
KDC1 081217Z 19003KT 05/03 A3007 RMK A01 T00460032  RH  090%=      5-min Rain = 0
KDC1 081218Z 19002KT 05/03 A3007 RMK A01 T00470032  RH  090%=      5-min Rain = 0
KDC1 081219Z 19001KT 05/03 A3007 RMK A01 T00470032  RH  090%=      5-min Rain = 0
KDC1 081220Z 18001KT 05/03 A3007 RMK A01 T00470032  RH  090%=      5-min Rain = 0
KDC1 081221Z 18002KT 05/03 A3007 RMK A01 T00460031  RH  090%=      5-min Rain = 0
KDC1 081222Z 19003KT 05/03 A3007 RMK A01 T00460031  RH  090%=      5-min Rain = 0
KDC1 081223Z 21002KT 05/03 A3007 RMK A01 T00450030  RH  090%=      5-min Rain = 0
KDC1 081224Z 22001KT 05/03 A3007 RMK A01 T00450031  RH  090%=      5-min Rain = 0
KDC1 081225Z 00000KT 05/03 A3007 RMK A01 T00450030  RH  091%=      5-min Rain = 0
KDC1 081226Z 20001KT 04/03 A3007 RMK A01 T00440030  RH  091%=      5-min Rain = 0
KDC1 081227Z 20001KT 04/03 A3007 RMK A01 T00440030  RH  091%=      5-min Rain = 0
KDC1 081228Z 21001KT 04/03 A3007 RMK A01 T00430029  RH  091%=      5-min Rain = 0
KDC1 081229Z 22000KT 04/03 A3007 RMK A01 T00420029  RH  091%=      5-min Rain = 0
KDC1 081230Z 00000KT 04/03 A3007 RMK A01 T00410029  RH  091%=      5-min Rain = 0
KDC1 081231Z 00000KT 04/03 A3007 RMK A01 T00400028  RH  092%=      5-min Rain = 0
KDC1 081232Z 25001KT 04/03 A3007 RMK A01 T00400029  RH  092%=      5-min Rain = 0
KDC1 081233Z 22001KT 04/03 A3007 RMK A01 T00390028  RH  093%=      5-min Rain = 0
KDC1 081234Z 19001KT 04/03 A3008 RMK A01 T00390029  RH  093%=      5-min Rain = 0
KDC1 081235Z 24000KT 04/03 A3008 RMK A01 T00390029  RH  093%=      5-min Rain = 0
KDC1 081236Z 25002KT 04/03 A3008 RMK A01 T00380028  RH  093%=      5-min Rain = 0
KDC1 081237Z 23002KT 04/03 A3008 RMK A01 T00380029  RH  094%=      5-min Rain = 0
KDC1 081238Z 16001KT 04/03 A3007 RMK A01 T00390030  RH  094%=      5-min Rain = 0
KDC1 081239Z 15001KT 04/03 A3007 RMK A01 T00410032  RH  094%=      5-min Rain = 0
KDC1 081240Z 00000KT 04/03 A3007 RMK A01 T00420034  RH  094%=      5-min Rain = 0
KDC1 081241Z 00000KT 04/03 A3007 RMK A01 T00430034  RH  094%=      5-min Rain = 0
KDC1 081242Z 32000KT 04/03 A3008 RMK A01 T00430033  RH  093%=      5-min Rain = 0
KDC1 081243Z 32001KT 04/03 A3008 RMK A01 T00400029  RH  093%=      5-min Rain = 0
KDC1 081244Z 02000KT 04/03 A3007 RMK A01 T00390028  RH  093%=      5-min Rain = 0
KDC1 081245Z 03000KT 04/03 A3007 RMK A01 T00380028  RH  093%=      5-min Rain = 0
KDC1 081246Z 23000KT 04/03 A3007 RMK A01 T00380028  RH  093%=      5-min Rain = 0
KDC1 081247Z 23000KT 04/03 A3008 RMK A01 T00370027  RH  093%=      5-min Rain = 0
KDC1 081248Z 33000KT 04/03 A3008 RMK A01 T00370027  RH  093%=      5-min Rain = 0
KDC1 081249Z 33000KT 04/03 A3007 RMK A01 T00370028  RH  094%=      5-min Rain = 0
KDC1 081250Z 00000KT 04/03 A3007 RMK A01 T00370028  RH  094%=      5-min Rain = 0
KDC1 081251Z 00000KT 04/03 A3007 RMK A01 T00360027  RH  094%=      5-min Rain = 0
KDC1 081252Z 00000KT 04/03 A3008 RMK A01 T00360027  RH  094%=      5-min Rain = 0
KDC1 081253Z 29001KT 04/03 A3008 RMK A01 T00360027  RH  094%=      5-min Rain = 0
KDC1 081254Z 30002KT 03/03 A3008 RMK A01 T00340025  RH  094%=      5-min Rain = 0
KDC1 081255Z 29002KT 03/02 A3008 RMK A01 T00330023  RH  094%=      5-min Rain = 0
KDC1 081256Z 30002KT 03/02 A3008 RMK A01 T00320023  RH  094%=      5-min Rain = 0
KDC1 081257Z 31003KT 03/02 A3008 RMK A01 T00310022  RH  094%=      5-min Rain = 0
KDC1 081258Z 31002KT 03/02 A3007 RMK A01 T00310022  RH  094%=      5-min Rain = 0
KDC1 081259Z 31001KT 03/02 A3007 RMK A01 T00310024  RH  095%=      5-min Rain = 0
KDC1 081300Z 30001KT 03/03 A3007 RMK A01 T00320025  RH  095%=      5-min Rain = 0
KDC1 081301Z 25001KT 03/03 A3007 RMK A01 T00320025  RH  095%=      5-min Rain = 0
KDC1 081302Z 29003KT 03/03 A3008 RMK A01 T00320025  RH  095%=      5-min Rain = 0
KDC1 081303Z 29005KT 03/02 A3008 RMK A01 T00320024  RH  095%=      5-min Rain = 0
KDC1 081304Z 30001KT 03/02 A3008 RMK A01 T00300023  RH  095%=      5-min Rain = 0
KDC1 081305Z 27000KT 03/02 A3008 RMK A01 T00300023  RH  095%=      5-min Rain = 0
KDC1 081306Z 31002KT 03/02 A3008 RMK A01 T00290022  RH  095%=      5-min Rain = 0
KDC1 081307Z 31002KT 03/02 A3008 RMK A01 T00290021  RH  095%=      5-min Rain = 0
KDC1 081308Z 28000KT 03/02 A3008 RMK A01 T00280021  RH  095%=      5-min Rain = 0
KDC1 081309Z 00000KT 03/02 A3008 RMK A01 T00290022  RH  095%=      5-min Rain = 0
KDC1 081310Z 09001KT 03/02 A3007 RMK A01 T00300024  RH  096%=      5-min Rain = 0
KDC1 081311Z 02002KT 03/03 A3008 RMK A01 T00310026  RH  096%=      5-min Rain = 0
KDC1 081312Z 31005KT 03/03 A3008 RMK A01 T00320026  RH  096%=      5-min Rain = 0
KDC1 081313Z 01003KT 03/03 A3008 RMK A01 T00310025  RH  095%=      5-min Rain = 0
KDC1 081314Z 11002KT 03/02 A3007 RMK A01 T00310024  RH  095%=      5-min Rain = 0
KDC1 081315Z 32000KT 03/02 A3008 RMK A01 T00310024  RH  095%=      5-min Rain = 0
KDC1 081316Z 33004KT 03/03 A3008 RMK A01 T00310025  RH  096%=      5-min Rain = 0
KDC1 081317Z 33004KT 03/03 A3008 RMK A01 T00340028  RH  096%=      5-min Rain = 0
KDC1 081318Z 35004KT 04/03 A3008 RMK A01 T00360031  RH  096%=      5-min Rain = 0
KDC1 081319Z 01003KT 04/03 A3008 RMK A01 T00370031  RH  096%=      5-min Rain = 0
KDC1 081320Z 35003KT 04/03 A3007 RMK A01 T00370031  RH  096%=      5-min Rain = 0
KDC1 081321Z 34003KT 04/03 A3007 RMK A01 T00380031  RH  095%=      5-min Rain = 0
KDC1 081322Z 32003KT 04/03 A3008 RMK A01 T00370030  RH  095%=      5-min Rain = 0
KDC1 081323Z 36003KT 04/03 A3007 RMK A01 T00380030  RH  095%=      5-min Rain = 0
KDC1 081324Z 01003KT 04/03 A3007 RMK A01 T00370029  RH  095%=      5-min Rain = 0
KDC1 081325Z 00001KT 04/03 A3007 RMK A01 T00360028  RH  095%=      5-min Rain = 0
KDC1 081326Z 31002KT 04/03 A3007 RMK A01 T00360028  RH  094%=      5-min Rain = 0
KDC1 081327Z 34002KT 04/03 A3007 RMK A01 T00350027  RH  094%=      5-min Rain = 0
KDC1 081328Z 35000KT 03/03 A3007 RMK A01 T00340025  RH  094%=      5-min Rain = 0
KDC1 081329Z 35001KT 03/03 A3007 RMK A01 T00340027  RH  095%=      5-min Rain = 0
KDC1 081330Z 03001KT 04/03 A3007 RMK A01 T00380031  RH  095%=      5-min Rain = 0
KDC1 081331Z 04001KT 04/03 A3007 RMK A01 T00380030  RH  095%=      5-min Rain = 0
KDC1 081332Z 27003KT 04/03 A3007 RMK A01 T00380029  RH  094%=      5-min Rain = 0
KDC1 081333Z 28003KT 04/03 A3007 RMK A01 T00360026  RH  093%=      5-min Rain = 0
KDC1 081334Z 05001KT 04/03 A3007 RMK A01 T00360027  RH  094%=      5-min Rain = 0
KDC1 081335Z 07001KT 04/03 A3007 RMK A01 T00380030  RH  095%=      5-min Rain = 0
KDC1 081336Z 00000KT 04/03 A3007 RMK A01 T00380030  RH  094%=      5-min Rain = 0
KDC1 081337Z 26001KT 04/03 A3007 RMK A01 T00360027  RH  093%=      5-min Rain = 0
KDC1 081338Z 30000KT 04/03 A3007 RMK A01 T00360026  RH  093%=      5-min Rain = 0
KDC1 081339Z 35000KT 04/03 A3007 RMK A01 T00370028  RH  094%=      5-min Rain = 0
KDC1 081340Z 01001KT 04/03 A3007 RMK A01 T00380029  RH  094%=      5-min Rain = 0
KDC1 081341Z 00003KT 04/03 A3007 RMK A01 T00380029  RH  094%=      5-min Rain = 0
KDC1 081342Z 01003KT 04/03 A3007 RMK A01 T00360026  RH  093%=      5-min Rain = 0
KDC1 081343Z 36001KT 04/03 A3007 RMK A01 T00350025  RH  093%=      5-min Rain = 0
KDC1 081344Z 30000KT 04/03 A3007 RMK A01 T00350025  RH  093%=      5-min Rain = 0
KDC1 081345Z 29001KT 03/02 A3007 RMK A01 T00330023  RH  093%=      5-min Rain = 0
KDC1 081346Z 04000KT 03/02 A3007 RMK A01 T00330024  RH  094%=      5-min Rain = 0
KDC1 081347Z 04001KT 03/02 A3007 RMK A01 T00330024  RH  094%=      5-min Rain = 0
KDC1 081348Z 02002KT 03/02 A3007 RMK A01 T00330024  RH  094%=      5-min Rain = 0
KDC1 081349Z 32003KT 03/02 A3007 RMK A01 T00330024  RH  094%=      5-min Rain = 0
KDC1 081350Z 30003KT 03/02 A3007 RMK A01 T00310021  RH  093%=      5-min Rain = 0
KDC1 081351Z 30003KT 03/02 A3007 RMK A01 T00280017  RH  093%=      5-min Rain = 0
KDC1 081352Z 32002KT 03/02 A3007 RMK A01 T00260016  RH  093%=      5-min Rain = 0
KDC1 081353Z 33001KT 03/02 A3007 RMK A01 T00250016  RH  094%=      5-min Rain = 0
KDC1 081354Z 33002KT 03/02 A3007 RMK A01 T00270020  RH  095%=      5-min Rain = 0
KDC1 081355Z 33004KT 03/02 A3007 RMK A01 T00290022  RH  095%=      5-min Rain = 0
KDC1 081356Z 30001KT 03/02 A3007 RMK A01 T00290021  RH  095%=      5-min Rain = 0
KDC1 081357Z 28005KT 03/02 A3008 RMK A01 T00270019  RH  094%=      5-min Rain = 0
KDC1 081358Z 27003KT 03/02 A3008 RMK A01 T00260017  RH  094%=      5-min Rain = 0
KDC1 081359Z 29000KT 03/02 A3007 RMK A01 T00270019  RH  095%=      5-min Rain = 0
KDC1 081400Z 29006KT 03/02 A3008 RMK A01 T00290022  RH  096%=      5-min Rain = 0
KDC1 081401Z 06002KT 03/02 A3007 RMK A01 T00280021  RH  095%=      5-min Rain = 0
KDC1 081402Z 11005KT 03/03 A3007 RMK A01 T00310025  RH  096%=      5-min Rain = 0
KDC1 081403Z 08003KT 04/03 A3007 RMK A01 T00350030  RH  096%=      5-min Rain = 0
KDC1 081404Z 29004KT 04/03 A3008 RMK A01 T00380032  RH  096%=      5-min Rain = 0
KDC1 081405Z 21001KT 04/04 A3007 RMK A01 T00410035  RH  096%=      5-min Rain = 0
KDC1 081406Z 14002KT 04/04 A3007 RMK A01 T00440036  RH  095%=      5-min Rain = 0
KDC1 081407Z 01002KT 05/04 A3007 RMK A01 T00460037  RH  094%=      5-min Rain = 0
KDC1 081408Z 34003KT 05/04 A3008 RMK A01 T00470035  RH  092%=      5-min Rain = 0
KDC1 081409Z 33002KT 05/03 A3008 RMK A01 T00470033  RH  091%=      5-min Rain = 0
KDC1 081410Z 00000KT 05/03 A3008 RMK A01 T00470033  RH  091%=      5-min Rain = 0
KDC1 081411Z 32001KT 05/03 A3008 RMK A01 T00480032  RH  090%=      5-min Rain = 0
KDC1 081412Z 28004KT 05/03 A3008 RMK A01 T00460029  RH  089%=      5-min Rain = 0
KDC1 081413Z 24003KT 04/03 A3008 RMK A01 T00430026  RH  089%=      5-min Rain = 0
KDC1 081414Z 07003KT 04/03 A3008 RMK A01 T00440030  RH  091%=      5-min Rain = 0
KDC1 081415Z 06001KT 05/04 A3008 RMK A01 T00490037  RH  092%=      5-min Rain = 0
KDC1 081416Z 27001KT 05/03 A3008 RMK A01 T00500034  RH  089%=      5-min Rain = 0
KDC1 081417Z 31001KT 05/03 A3008 RMK A01 T00490032  RH  089%=      5-min Rain = 0
KDC1 081418Z 00000KT 05/03 A3008 RMK A01 T00500033  RH  089%=      5-min Rain = 0
KDC1 081419Z 00000KT 05/03 A3008 RMK A01 T00500031  RH  088%=      5-min Rain = 0
KDC1 081420Z 00000KT 05/03 A3008 RMK A01 T00490032  RH  088%=      5-min Rain = 0
KDC1 081421Z 23002KT 05/03 A3008 RMK A01 T00480030  RH  088%=      5-min Rain = 0
KDC1 081422Z 19003KT 05/03 A3008 RMK A01 T00480031  RH  089%=      5-min Rain = 0
KDC1 081423Z 11003KT 05/03 A3007 RMK A01 T00490034  RH  090%=      5-min Rain = 0
KDC1 081424Z 08001KT 05/04 A3008 RMK A01 T00530037  RH  090%=      5-min Rain = 0
KDC1 081425Z 33000KT 05/03 A3008 RMK A01 T00530034  RH  087%=      5-min Rain = 0
KDC1 081426Z 06001KT 05/03 A3008 RMK A01 T00500029  RH  087%=      5-min Rain = 0
KDC1 081427Z 01001KT 05/03 A3008 RMK A01 T00460027  RH  087%=      5-min Rain = 0
KDC1 081428Z 04002KT 05/03 A3007 RMK A01 T00460030  RH  089%=      5-min Rain = 0
KDC1 081429Z 20001KT 05/04 A3008 RMK A01 T00490035  RH  091%=      5-min Rain = 0
KDC1 081430Z 28002KT 05/03 A3008 RMK A01 T00490032  RH  089%=      5-min Rain = 0
KDC1 081431Z 01001KT 05/03 A3008 RMK A01 T00470030  RH  089%=      5-min Rain = 0
KDC1 081432Z 00003KT 05/03 A3008 RMK A01 T00460029  RH  089%=      5-min Rain = 0
KDC1 081433Z 01003KT 05/03 A3008 RMK A01 T00450029  RH  089%=      5-min Rain = 0
KDC1 081434Z 04002KT 05/03 A3008 RMK A01 T00450030  RH  090%=      5-min Rain = 0
KDC1 081435Z 06001KT 05/03 A3008 RMK A01 T00450030  RH  090%=      5-min Rain = 0
KDC1 081436Z 00000KT 05/03 A3008 RMK A01 T00460031  RH  090%=      5-min Rain = 0
KDC1 081437Z 04000KT 05/03 A3008 RMK A01 T00460031  RH  090%=      5-min Rain = 0
KDC1 081438Z 03003KT 05/03 A3008 RMK A01 T00470032  RH  090%=      5-min Rain = 0
KDC1 081439Z 03004KT 05/03 A3008 RMK A01 T00470031  RH  090%=      5-min Rain = 0
KDC1 081440Z 02004KT 05/03 A3008 RMK A01 T00470031  RH  090%=      5-min Rain = 0
KDC1 081441Z 03004KT 05/03 A3008 RMK A01 T00460031  RH  090%=      5-min Rain = 0
KDC1 081442Z 04002KT 05/03 A3008 RMK A01 T00460031  RH  090%=      5-min Rain = 0
KDC1 081443Z 02001KT 05/03 A3008 RMK A01 T00460031  RH  090%=      5-min Rain = 0
KDC1 081444Z 04002KT 05/03 A3008 RMK A01 T00470032  RH  090%=      5-min Rain = 0
KDC1 081445Z 04002KT 05/03 A3008 RMK A01 T00460031  RH  090%=      5-min Rain = 0
KDC1 081446Z 03001KT 05/03 A3008 RMK A01 T00460032  RH  090%=      5-min Rain = 0
KDC1 081447Z 04001KT 05/03 A3008 RMK A01 T00460032  RH  090%=      5-min Rain = 0
KDC1 081448Z 06001KT 05/03 A3008 RMK A01 T00470032  RH  090%=      5-min Rain = 0
KDC1 081449Z 09000KT 05/03 A3008 RMK A01 T00470033  RH  090%=      5-min Rain = 0
KDC1 081450Z 00000KT 05/03 A3007 RMK A01 T00480034  RH  091%=      5-min Rain = 0
KDC1 081451Z 11000KT 05/04 A3007 RMK A01 T00500036  RH  091%=      5-min Rain = 0
KDC1 081452Z 00000KT 05/04 A3007 RMK A01 T00500035  RH  090%=      5-min Rain = 0
KDC1 081453Z 04001KT 05/03 A3007 RMK A01 T00510034  RH  089%=      5-min Rain = 0
KDC1 081454Z 04001KT 05/03 A3008 RMK A01 T00510033  RH  088%=      5-min Rain = 0
KDC1 081455Z 00000KT 05/03 A3008 RMK A01 T00500032  RH  088%=      5-min Rain = 0
KDC1 081456Z 00000KT 05/03 A3008 RMK A01 T00500033  RH  089%=      5-min Rain = 0
KDC1 081457Z 00000KT 05/04 A3008 RMK A01 T00520035  RH  089%=      5-min Rain = 0
KDC1 081458Z 10001KT 05/04 A3008 RMK A01 T00530035  RH  088%=      5-min Rain = 0
KDC1 081459Z 08002KT 05/03 A3008 RMK A01 T00540034  RH  087%=      5-min Rain = 0
KDC1 081500Z 06000KT 05/03 A3008 RMK A01 T00520031  RH  086%=      5-min Rain = 0
KDC1 081501Z 00000KT 05/03 A3008 RMK A01 T00520032  RH  087%=      5-min Rain = 0
KDC1 081502Z 10000KT 05/03 A3008 RMK A01 T00530033  RH  087%=      5-min Rain = 0
KDC1 081503Z 08002KT 05/03 A3008 RMK A01 T00530034  RH  087%=      5-min Rain = 0
KDC1 081504Z 05002KT 05/03 A3008 RMK A01 T00530033  RH  087%=      5-min Rain = 0
KDC1 081505Z 03001KT 05/03 A3008 RMK A01 T00530032  RH  086%=      5-min Rain = 0
KDC1 081506Z 00000KT 05/03 A3008 RMK A01 T00520032  RH  087%=      5-min Rain = 0
KDC1 081507Z 03000KT 05/03 A3008 RMK A01 T00520033  RH  087%=      5-min Rain = 0
KDC1 081508Z 01001KT 05/03 A3008 RMK A01 T00530033  RH  087%=      5-min Rain = 0
KDC1 081509Z 03003KT 05/03 A3008 RMK A01 T00540034  RH  087%=      5-min Rain = 0
KDC1 081510Z 01004KT 05/04 A3008 RMK A01 T00540036  RH  088%=      5-min Rain = 0
KDC1 081511Z 01002KT 05/04 A3008 RMK A01 T00540035  RH  087%=      5-min Rain = 0
KDC1 081512Z 08002KT 05/03 A3008 RMK A01 T00530034  RH  087%=      5-min Rain = 0
KDC1 081513Z 07003KT 05/03 A3008 RMK A01 T00540034  RH  087%=      5-min Rain = 0
KDC1 081514Z 04003KT 05/04 A3008 RMK A01 T00540035  RH  087%=      5-min Rain = 0
KDC1 081515Z 05003KT 06/04 A3008 RMK A01 T00550035  RH  087%=      5-min Rain = 0
KDC1 081516Z 06002KT 06/04 A3008 RMK A01 T00550037  RH  088%=      5-min Rain = 0
KDC1 081517Z 04001KT 06/04 A3008 RMK A01 T00560037  RH  087%=      5-min Rain = 0
KDC1 081518Z 02000KT 06/04 A3008 RMK A01 T00570038  RH  088%=      5-min Rain = 0
KDC1 081519Z 09001KT 06/04 A3008 RMK A01 T00590040  RH  088%=      5-min Rain = 0
KDC1 081520Z 08002KT 06/04 A3008 RMK A01 T00600039  RH  086%=      5-min Rain = 0
KDC1 081521Z 09002KT 06/04 A3008 RMK A01 T00600037  RH  085%=      5-min Rain = 0
KDC1 081522Z 09002KT 06/04 A3008 RMK A01 T00600037  RH  085%=      5-min Rain = 0
KDC1 081523Z 10002KT 06/04 A3008 RMK A01 T00600036  RH  085%=      5-min Rain = 0
KDC1 081524Z 10002KT 06/04 A3008 RMK A01 T00610037  RH  085%=      5-min Rain = 0
KDC1 081525Z 12002KT 06/04 A3008 RMK A01 T00620040  RH  086%=      5-min Rain = 0
KDC1 081526Z 12002KT 06/04 A3008 RMK A01 T00630043  RH  087%=      5-min Rain = 0
KDC1 081527Z 10001KT 06/04 A3008 RMK A01 T00630043  RH  087%=      5-min Rain = 0
KDC1 081528Z 08001KT 06/05 A3008 RMK A01 T00640045  RH  088%=      5-min Rain = 0
KDC1 081529Z 08001KT 07/05 A3008 RMK A01 T00650047  RH  088%=      5-min Rain = 0
KDC1 081530Z 07001KT 07/05 A3008 RMK A01 T00650045  RH  087%=      5-min Rain = 0
KDC1 081531Z 09001KT 07/04 A3008 RMK A01 T00650044  RH  086%=      5-min Rain = 0
KDC1 081532Z 07002KT 07/04 A3008 RMK A01 T00650043  RH  086%=      5-min Rain = 0
KDC1 081533Z 08002KT 06/04 A3008 RMK A01 T00640042  RH  086%=      5-min Rain = 0
KDC1 081534Z 10001KT 07/04 A3008 RMK A01 T00650043  RH  086%=      5-min Rain = 0
KDC1 081535Z 10001KT 07/05 A3008 RMK A01 T00660045  RH  086%=      5-min Rain = 0
KDC1 081536Z 07002KT 07/04 A3008 RMK A01 T00670044  RH  085%=      5-min Rain = 0
KDC1 081537Z 06002KT 07/05 A3008 RMK A01 T00690047  RH  086%=      5-min Rain = 0
KDC1 081538Z 04000KT 07/05 A3009 RMK A01 T00700048  RH  086%=      5-min Rain = 0
KDC1 081539Z 04002KT 07/05 A3008 RMK A01 T00710047  RH  085%=      5-min Rain = 0
KDC1 081540Z 04001KT 07/05 A3008 RMK A01 T00720046  RH  083%=      5-min Rain = 0
KDC1 081541Z 00000KT 07/05 A3009 RMK A01 T00730047  RH  083%=      5-min Rain = 0
KDC1 081542Z 06000KT 08/05 A3008 RMK A01 T00750048  RH  083%=      5-min Rain = 0
KDC1 081543Z 06001KT 08/05 A3008 RMK A01 T00760047  RH  082%=      5-min Rain = 0
KDC1 081544Z 06001KT 08/05 A3008 RMK A01 T00760047  RH  082%=      5-min Rain = 0
KDC1 081545Z 07002KT 08/05 A3008 RMK A01 T00760047  RH  082%=      5-min Rain = 0
KDC1 081546Z 06002KT 08/05 A3008 RMK A01 T00780049  RH  082%=      5-min Rain = 0
KDC1 081547Z 06002KT 08/05 A3009 RMK A01 T00790050  RH  082%=      5-min Rain = 0
KDC1 081548Z 06002KT 08/05 A3009 RMK A01 T00790050  RH  082%=      5-min Rain = 0
KDC1 081549Z 06003KT 08/05 A3008 RMK A01 T00800049  RH  081%=      5-min Rain = 0
KDC1 081550Z 06003KT 08/05 A3008 RMK A01 T00800050  RH  081%=      5-min Rain = 0
KDC1 081551Z 07003KT 08/05 A3008 RMK A01 T00800051  RH  082%=      5-min Rain = 0
KDC1 081552Z 08002KT 08/05 A3008 RMK A01 T00800051  RH  082%=      5-min Rain = 0
KDC1 081553Z 06002KT 08/05 A3008 RMK A01 T00810052  RH  082%=      5-min Rain = 0
KDC1 081554Z 05003KT 08/05 A3008 RMK A01 T00810053  RH  082%=      5-min Rain = 0
KDC1 081555Z 06003KT 08/05 A3008 RMK A01 T00820054  RH  083%=      5-min Rain = 0
KDC1 081556Z 06000KT 08/06 A3009 RMK A01 T00820055  RH  083%=      5-min Rain = 0
KDC1 081557Z 07001KT 08/06 A3009 RMK A01 T00840056  RH  083%=      5-min Rain = 0
KDC1 081558Z 06002KT 09/06 A3009 RMK A01 T00850055  RH  082%=      5-min Rain = 0
KDC1 081559Z 05003KT 09/05 A3008 RMK A01 T00850054  RH  081%=      5-min Rain = 0
KDC1 081600Z 05004KT 09/05 A3008 RMK A01 T00850054  RH  081%=      5-min Rain = 0
KDC1 081601Z 05003KT 09/05 A3008 RMK A01 T00860052  RH  079%=      5-min Rain = 0
KDC1 081602Z 07002KT 09/05 A3008 RMK A01 T00860053  RH  080%=      5-min Rain = 0
KDC1 081603Z 09002KT 09/05 A3009 RMK A01 T00870054  RH  080%=      5-min Rain = 0
KDC1 081604Z 08004KT 09/05 A3009 RMK A01 T00880053  RH  079%=      5-min Rain = 0
KDC1 081605Z 07004KT 09/05 A3008 RMK A01 T00880052  RH  078%=      5-min Rain = 0
KDC1 081606Z 13002KT 09/05 A3009 RMK A01 T00880054  RH  079%=      5-min Rain = 0
KDC1 081607Z 11004KT 09/06 A3008 RMK A01 T00890056  RH  080%=      5-min Rain = 0
KDC1 081608Z 10004KT 09/05 A3008 RMK A01 T00900054  RH  078%=      5-min Rain = 0
KDC1 081609Z 09003KT 09/05 A3008 RMK A01 T00900054  RH  078%=      5-min Rain = 0
KDC1 081610Z 09004KT 09/06 A3008 RMK A01 T00910056  RH  079%=      5-min Rain = 0
KDC1 081611Z 09004KT 09/06 A3009 RMK A01 T00910056  RH  078%=      5-min Rain = 0
KDC1 081612Z 07004KT 09/06 A3009 RMK A01 T00910055  RH  078%=      5-min Rain = 0
KDC1 081613Z 06004KT 09/06 A3009 RMK A01 T00900055  RH  078%=      5-min Rain = 0
KDC1 081614Z 07003KT 09/06 A3009 RMK A01 T00910058  RH  080%=      5-min Rain = 0
KDC1 081615Z 07004KT 09/06 A3009 RMK A01 T00930059  RH  080%=      5-min Rain = 0
KDC1 081616Z 07004KT 09/06 A3009 RMK A01 T00930059  RH  079%=      5-min Rain = 0
KDC1 081617Z 06004KT 09/06 A3009 RMK A01 T00940060  RH  079%=      5-min Rain = 0
KDC1 081618Z 07004KT 10/06 A3009 RMK A01 T00950060  RH  079%=      5-min Rain = 0
KDC1 081619Z 08005KT 10/06 A3008 RMK A01 T00960060  RH  078%=      5-min Rain = 0
KDC1 081620Z 08004KT 10/06 A3008 RMK A01 T00970061  RH  078%=      5-min Rain = 0
KDC1 081621Z 09003KT 10/06 A3008 RMK A01 T00980061  RH  078%=      5-min Rain = 0
KDC1 081622Z 08004KT 10/06 A3008 RMK A01 T00990062  RH  078%=      5-min Rain = 0
KDC1 081623Z 08003KT 10/06 A3008 RMK A01 T01000064  RH  078%=      5-min Rain = 0
KDC1 081624Z 09004KT 10/07 A3008 RMK A01 T01020066  RH  078%=      5-min Rain = 0
KDC1 081625Z 08004KT 10/07 A3008 RMK A01 T01020066  RH  078%=      5-min Rain = 0
KDC1 081626Z 07005KT 10/07 A3008 RMK A01 T01020068  RH  079%=      5-min Rain = 0
KDC1 081627Z 08006KT 10/07 A3008 RMK A01 T01030068  RH  079%=      5-min Rain = 0
KDC1 081628Z 08005KT 10/07 A3008 RMK A01 T01040066  RH  078%=      5-min Rain = 0
KDC1 081629Z 06005KT 10/07 A3008 RMK A01 T01030068  RH  079%=      5-min Rain = 0
KDC1 081630Z 07006KT 10/07 A3008 RMK A01 T01030070  RH  080%=      5-min Rain = 0
KDC1 081631Z 09007KT 10/07 A3008 RMK A01 T01030070  RH  080%=      5-min Rain = 0
KDC1 081632Z 10007KT 11/07 A3008 RMK A01 T01050070  RH  079%=      5-min Rain = 0
KDC1 081633Z 10007KT 11/07 A3008 RMK A01 T01060070  RH  078%=      5-min Rain = 0
KDC1 081634Z 08005KT 11/07 A3008 RMK A01 T01070070  RH  078%=      5-min Rain = 0
KDC1 081635Z 08007KT 11/07 A3008 RMK A01 T01080071  RH  078%=      5-min Rain = 0
KDC1 081636Z 08008KT 11/07 A3008 RMK A01 T01100071  RH  077%=      5-min Rain = 0
KDC1 081637Z 10005KT 11/07 A3008 RMK A01 T01100069  RH  076%=      5-min Rain = 0
KDC1 081638Z 09006KT 11/07 A3008 RMK A01 T01120071  RH  076%=      5-min Rain = 0
KDC1 081639Z 10007KT 11/07 A3008 RMK A01 T01140074  RH  077%=      5-min Rain = 0
KDC1 081640Z 09006KT 11/07 A3008 RMK A01 T01140073  RH  076%=      5-min Rain = 0
KDC1 081641Z 09006KT 12/07 A3008 RMK A01 T01160073  RH  075%=      5-min Rain = 0
KDC1 081642Z 09006KT 12/07 A3007 RMK A01 T01170073  RH  075%=      5-min Rain = 0
KDC1 081643Z 09006KT 12/08 A3007 RMK A01 T01190077  RH  075%=      5-min Rain = 0
KDC1 081644Z 09006KT 12/08 A3007 RMK A01 T01200077  RH  075%=      5-min Rain = 0
KDC1 081645Z 10004KT 12/08 A3007 RMK A01 T01200078  RH  075%=      5-min Rain = 0
KDC1 081646Z 10004KT 12/08 A3007 RMK A01 T01230082  RH  076%=      5-min Rain = 0
KDC1 081647Z 09006KT 12/08 A3007 RMK A01 T01240080  RH  074%=      5-min Rain = 0
KDC1 081648Z 10005KT 12/08 A3008 RMK A01 T01220077  RH  074%=      5-min Rain = 0
KDC1 081649Z 09005KT 12/08 A3008 RMK A01 T01220076  RH  074%=      5-min Rain = 0
KDC1 081650Z 10005KT 12/07 A3008 RMK A01 T01220070  RH  071%=      5-min Rain = 0
KDC1 081651Z 10005KT 12/07 A3007 RMK A01 T01220069  RH  070%=      5-min Rain = 0
KDC1 081652Z 10005KT 12/07 A3007 RMK A01 T01220067  RH  069%=      5-min Rain = 0
KDC1 081653Z 10004KT 12/07 A3007 RMK A01 T01230070  RH  070%=      5-min Rain = 0
KDC1 081654Z 09004KT 12/07 A3007 RMK A01 T01230069  RH  070%=      5-min Rain = 0
KDC1 081655Z 09002KT 12/07 A3007 RMK A01 T01230069  RH  070%=      5-min Rain = 0
KDC1 081656Z 09008KT 12/07 A3007 RMK A01 T01230069  RH  070%=      5-min Rain = 0
KDC1 081657Z 08009KT 12/07 A3007 RMK A01 T01240068  RH  069%=      5-min Rain = 0
KDC1 081658Z 09009KT 13/07 A3007 RMK A01 T01250071  RH  070%=      5-min Rain = 0
KDC1 081659Z 08008KT 13/07 A3007 RMK A01 T01260070  RH  069%=      5-min Rain = 0
KDC1 081700Z 11008KT 13/07 A3007 RMK A01 T01270072  RH  069%=      5-min Rain = 0
KDC1 081701Z 10006KT 13/07 A3007 RMK A01 T01300073  RH  068%=      5-min Rain = 0
KDC1 081702Z 08006KT 13/07 A3007 RMK A01 T01300072  RH  068%=      5-min Rain = 0
KDC1 081703Z 10005KT 13/07 A3007 RMK A01 T01310073  RH  068%=      5-min Rain = 0
KDC1 081704Z 11003KT 13/07 A3007 RMK A01 T01330069  RH  065%=      5-min Rain = 0
KDC1 081705Z 11003KT 14/07 A3007 RMK A01 T01360071  RH  065%=      5-min Rain = 0
KDC1 081706Z 10004KT 14/07 A3007 RMK A01 T01380072  RH  064%=      5-min Rain = 0
KDC1 081707Z 12002KT 14/08 A3007 RMK A01 T01390075  RH  065%=      5-min Rain = 0
KDC1 081708Z 15002KT 14/08 A3007 RMK A01 T01410076  RH  065%=      5-min Rain = 0
KDC1 081709Z 15001KT 14/07 A3007 RMK A01 T01430073  RH  063%=      5-min Rain = 0
KDC1 081710Z 08001KT 15/07 A3006 RMK A01 T01460074  RH  062%=      5-min Rain = 0
KDC1 081711Z 14003KT 15/08 A3006 RMK A01 T01470078  RH  063%=      5-min Rain = 0
KDC1 081712Z 23001KT 15/08 A3006 RMK A01 T01500079  RH  063%=      5-min Rain = 0
KDC1 081713Z 16002KT 15/08 A3006 RMK A01 T01510077  RH  062%=      5-min Rain = 0
KDC1 081714Z 06001KT 15/08 A3006 RMK A01 T01520079  RH  062%=      5-min Rain = 0
KDC1 081715Z 13002KT 15/08 A3005 RMK A01 T01530077  RH  061%=      5-min Rain = 0
KDC1 081716Z 14001KT 15/08 A3005 RMK A01 T01530079  RH  061%=      5-min Rain = 0
KDC1 081717Z 24002KT 16/08 A3005 RMK A01 T01550082  RH  062%=      5-min Rain = 0
KDC1 081718Z 25008KT 16/07 A3005 RMK A01 T01580074  RH  057%=      5-min Rain = 0
KDC1 081719Z 25009KT 17/07 A3005 RMK A01 T01680066  RH  051%=      5-min Rain = 0
KDC1 081720Z 25012KT 18/06 A3005 RMK A01 T01760064  RH  048%=      5-min Rain = 0
KDC1 081721Z 25012KT 18/06 A3005 RMK A01 T01800060  RH  045%=      5-min Rain = 0
KDC1 081722Z 24010KT 18/06 A3006 RMK A01 T01830059  RH  044%=      5-min Rain = 0
KDC1 081723Z 25009KT 18/07 A3006 RMK A01 T01840065  RH  046%=      5-min Rain = 0
KDC1 081724Z 25011KT 19/07 A3006 RMK A01 T01850066  RH  046%=      5-min Rain = 0
KDC1 081725Z 24011KT 19/06 A3006 RMK A01 T01860064  RH  045%=      5-min Rain = 0
KDC1 081726Z 24011KT 19/06 A3006 RMK A01 T01870064  RH  045%=      5-min Rain = 0
KDC1 081727Z 25010KT 19/06 A3006 RMK A01 T01870064  RH  044%=      5-min Rain = 0
KDC1 081728Z 25011KT 19/06 A3005 RMK A01 T01870063  RH  044%=      5-min Rain = 0
KDC1 081729Z 24012KT 19/06 A3005 RMK A01 T01880062  RH  044%=      5-min Rain = 0
KDC1 081730Z 24010G17KT 19/06 A3005 RMK A01 T01880062  RH  044%=      5-min Rain = 0
KDC1 081731Z 24013KT 19/06 A3005 RMK A01 T01880059  RH  043%=      5-min Rain = 0
KDC1 081732Z 25011KT 19/06 A3005 RMK A01 T01880058  RH  042%=      5-min Rain = 0
KDC1 081733Z 25011KT 19/06 A3005 RMK A01 T01890061  RH  043%=      5-min Rain = 0
KDC1 081734Z 25011KT 19/06 A3005 RMK A01 T01890063  RH  044%=      5-min Rain = 0
KDC1 081735Z 25012KT 19/06 A3005 RMK A01 T01900063  RH  044%=      5-min Rain = 0
KDC1 081736Z 25011KT 19/06 A3005 RMK A01 T01910062  RH  043%=      5-min Rain = 0
KDC1 081737Z 25012KT 19/06 A3005 RMK A01 T01910064  RH  043%=      5-min Rain = 0
KDC1 081738Z 25012KT 19/06 A3005 RMK A01 T01920061  RH  042%=      5-min Rain = 0
KDC1 081739Z 25013KT 19/06 A3005 RMK A01 T01920062  RH  042%=      5-min Rain = 0
KDC1 081740Z 25012KT 19/06 A3005 RMK A01 T01930061  RH  042%=      5-min Rain = 0
KDC1 081741Z 26013KT 19/06 A3005 RMK A01 T01940063  RH  042%=      5-min Rain = 0
KDC1 081742Z 26012KT 20/06 A3005 RMK A01 T01950062  RH  042%=      5-min Rain = 0
KDC1 081743Z 24014KT 20/06 A3005 RMK A01 T01960063  RH  042%=      5-min Rain = 0
KDC1 081744Z 25012KT 20/06 A3005 RMK A01 T01960061  RH  041%=      5-min Rain = 0
KDC1 081745Z 25012KT 20/06 A3004 RMK A01 T01970061  RH  041%=      5-min Rain = 0
KDC1 081746Z 25013KT 20/06 A3004 RMK A01 T01970064  RH  042%=      5-min Rain = 0
KDC1 081747Z 26013KT 20/06 A3004 RMK A01 T01980062  RH  041%=      5-min Rain = 0
KDC1 081748Z 26013KT 20/06 A3004 RMK A01 T01990061  RH  041%=      5-min Rain = 0
KDC1 081749Z 25014G19KT 20/06 A3004 RMK A01 T01990062  RH  041%=      5-min Rain = 0
KDC1 081750Z 24015KT 20/06 A3004 RMK A01 T02000060  RH  040%=      5-min Rain = 0
KDC1 081751Z 25017KT 20/06 A3004 RMK A01 T01980058  RH  040%=      5-min Rain = 0
KDC1 081752Z 25016KT 20/06 A3004 RMK A01 T01970058  RH  040%=      5-min Rain = 0
KDC1 081753Z 25013KT 20/06 A3004 RMK A01 T01960058  RH  040%=      5-min Rain = 0
KDC1 081754Z 25010KT 20/06 A3004 RMK A01 T01950059  RH  041%=      5-min Rain = 0
KDC1 081755Z 26012KT 20/06 A3004 RMK A01 T01950064  RH  042%=      5-min Rain = 0
KDC1 081756Z 25012KT 20/06 A3004 RMK A01 T01950063  RH  042%=      5-min Rain = 0
KDC1 081757Z 25009KT 20/06 A3004 RMK A01 T01950061  RH  042%=      5-min Rain = 0
KDC1 081758Z 25012G17KT 20/06 A3004 RMK A01 T01950064  RH  042%=      5-min Rain = 0
KDC1 081759Z 24013KT 20/06 A3004 RMK A01 T01960057  RH  040%=      5-min Rain = 0
KDC1 081800Z 25015KT 20/06 A3004 RMK A01 T01960057  RH  040%=      5-min Rain = 0
KDC1 081801Z 25013KT 20/06 A3004 RMK A01 T01970057  RH  040%=      5-min Rain = 0
KDC1 081802Z 26012KT 20/06 A3004 RMK A01 T01970060  RH  041%=      5-min Rain = 0
KDC1 081803Z 25014G19KT 20/06 A3004 RMK A01 T01980063  RH  041%=      5-min Rain = 0
KDC1 081804Z 25016KT 20/06 A3004 RMK A01 T01980057  RH  040%=      5-min Rain = 0
KDC1 081805Z 25015KT 20/06 A3004 RMK A01 T01980056  RH  040%=      5-min Rain = 0
KDC1 081806Z 25015G20KT 20/06 A3004 RMK A01 T01980059  RH  040%=      5-min Rain = 0
KDC1 081807Z 25015G20KT 20/06 A3004 RMK A01 T01980058  RH  040%=      5-min Rain = 0
KDC1 081808Z 25015KT 20/06 A3004 RMK A01 T01990059  RH  040%=      5-min Rain = 0
KDC1 081809Z 26014KT 20/06 A3004 RMK A01 T01990061  RH  040%=      5-min Rain = 0
KDC1 081810Z 26015KT 20/06 A3004 RMK A01 T02000063  RH  041%=      5-min Rain = 0
KDC1 081811Z 26016KT 20/06 A3004 RMK A01 T02010060  RH  040%=      5-min Rain = 0
KDC1 081812Z 26016KT 20/06 A3004 RMK A01 T02020061  RH  040%=      5-min Rain = 0
KDC1 081813Z 26018G23KT 20/06 A3004 RMK A01 T02040060  RH  039%=      5-min Rain = 0
KDC1 081814Z 26018KT 21/06 A3004 RMK A01 T02050058  RH  038%=      5-min Rain = 0
KDC1 081815Z 26018KT 21/06 A3004 RMK A01 T02060058  RH  038%=      5-min Rain = 0
KDC1 081816Z 26013KT 21/06 A3004 RMK A01 T02070064  RH  039%=      5-min Rain = 0
KDC1 081817Z 25014KT 21/07 A3004 RMK A01 T02080065  RH  040%=      5-min Rain = 0
KDC1 081818Z 26016KT 21/06 A3004 RMK A01 T02080062  RH  039%=      5-min Rain = 0
KDC1 081819Z 26016KT 21/06 A3003 RMK A01 T02080063  RH  039%=      5-min Rain = 0
KDC1 081820Z 26015KT 21/06 A3003 RMK A01 T02070059  RH  038%=      5-min Rain = 0
KDC1 081821Z 26014KT 21/06 A3003 RMK A01 T02070060  RH  038%=      5-min Rain = 0
KDC1 081822Z 26015KT 21/06 A3003 RMK A01 T02070063  RH  039%=      5-min Rain = 0
KDC1 081823Z 26015KT 21/06 A3003 RMK A01 T02070064  RH  039%=      5-min Rain = 0
KDC1 081824Z 25016KT 21/06 A3003 RMK A01 T02080064  RH  039%=      5-min Rain = 0
KDC1 081825Z 26017KT 21/06 A3003 RMK A01 T02080061  RH  038%=      5-min Rain = 0
KDC1 081826Z 26018G23KT 21/06 A3003 RMK A01 T02080060  RH  038%=      5-min Rain = 0
KDC1 081827Z 26019KT 21/06 A3003 RMK A01 T02080058  RH  037%=      5-min Rain = 0
KDC1 081828Z 26016KT 21/06 A3003 RMK A01 T02080063  RH  039%=      5-min Rain = 0
KDC1 081829Z 26018G23KT 21/06 A3002 RMK A01 T02090062  RH  038%=      5-min Rain = 0
KDC1 081830Z 26021G26KT 21/06 A3002 RMK A01 T02100063  RH  038%=      5-min Rain = 0
KDC1 081831Z 26019KT 21/06 A3002 RMK A01 T02100062  RH  038%=      5-min Rain = 0
KDC1 081832Z 26019KT 21/06 A3002 RMK A01 T02100063  RH  038%=      5-min Rain = 0
KDC1 081833Z 27020KT 21/06 A3002 RMK A01 T02100064  RH  039%=      5-min Rain = 0
KDC1 081834Z 27020KT 21/06 A3002 RMK A01 T02100061  RH  038%=      5-min Rain = 0
KDC1 081835Z 27019KT 21/06 A3002 RMK A01 T02100063  RH  038%=      5-min Rain = 0
KDC1 081836Z 27020KT 21/06 A3002 RMK A01 T02110061  RH  038%=      5-min Rain = 0
KDC1 081837Z 26019G24KT 21/06 A3002 RMK A01 T02110062  RH  038%=      5-min Rain = 0
KDC1 081838Z 26018KT 21/07 A3002 RMK A01 T02110066  RH  039%=      5-min Rain = 0
KDC1 081839Z 26014G19KT 21/07 A3002 RMK A01 T02110066  RH  039%=      5-min Rain = 0
KDC1 081840Z 26017KT 21/07 A3002 RMK A01 T02100068  RH  040%=      5-min Rain = 0
KDC1 081841Z 26019G24KT 21/07 A3002 RMK A01 T02110068  RH  039%=      5-min Rain = 0
KDC1 081842Z 26019KT 21/06 A3002 RMK A01 T02110064  RH  038%=      5-min Rain = 0
KDC1 081843Z 26017KT 21/06 A3002 RMK A01 T02110064  RH  038%=      5-min Rain = 0
KDC1 081844Z 25014KT 21/07 A3002 RMK A01 T02110070  RH  040%=      5-min Rain = 0
KDC1 081845Z 26019KT 21/07 A3001 RMK A01 T02120069  RH  039%=      5-min Rain = 0
KDC1 081846Z 26019KT 21/07 A3001 RMK A01 T02120065  RH  038%=      5-min Rain = 0
KDC1 081847Z 25020KT 21/07 A3001 RMK A01 T02120066  RH  039%=      5-min Rain = 0
KDC1 081848Z 26017KT 21/06 A3001 RMK A01 T02120064  RH  038%=      5-min Rain = 0
KDC1 081849Z 25016KT 21/06 A3001 RMK A01 T02120064  RH  038%=      5-min Rain = 0
KDC1 081850Z 25014KT 21/07 A3001 RMK A01 T02120066  RH  039%=      5-min Rain = 0
KDC1 081851Z 25018KT 21/06 A3001 RMK A01 T02130064  RH  038%=      5-min Rain = 0
KDC1 081852Z 26019KT 21/06 A3001 RMK A01 T02130063  RH  038%=      5-min Rain = 0
KDC1 081853Z 26019KT 21/06 A3001 RMK A01 T02130062  RH  038%=      5-min Rain = 0
KDC1 081854Z 26018KT 21/06 A3001 RMK A01 T02140061  RH  037%=      5-min Rain = 0
KDC1 081855Z 26018KT 21/06 A30 RMK A01 T02140063  RH  037%=      5-min Rain = 0
KDC1 081856Z 26017KT 22/06 A3001 RMK A01 T02150062  RH  037%=      5-min Rain = 0
KDC1 081857Z 25014KT 22/07 A3001 RMK A01 T02160065  RH  038%=      5-min Rain = 0
KDC1 081858Z 25013G18KT 22/07 A3001 RMK A01 T02170066  RH  038%=      5-min Rain = 0
KDC1 081859Z 24016KT 22/06 A30 RMK A01 T02170062  RH  037%=      5-min Rain = 0
KDC1 081900Z 25014KT 22/07 A30 RMK A01 T02170066  RH  037%=      5-min Rain = 0
KDC1 081901Z 25017KT 22/07 A30 RMK A01 T02180065  RH  037%=      5-min Rain = 0
KDC1 081902Z 25015KT 22/07 A30 RMK A01 T02190065  RH  037%=      5-min Rain = 0
KDC1 081903Z 25017KT 22/07 A30 RMK A01 T02190067  RH  037%=      5-min Rain = 0
KDC1 081904Z 25017KT 22/07 A30 RMK A01 T02190065  RH  037%=      5-min Rain = 0
KDC1 081905Z 26015KT 22/07 A30 RMK A01 T02180068  RH  038%=      5-min Rain = 0
KDC1 081906Z 26019G24KT 22/07 A30 RMK A01 T02170066  RH  038%=      5-min Rain = 0
KDC1 081907Z 25018KT 22/07 A30 RMK A01 T02160066  RH  038%=      5-min Rain = 0
KDC1 081908Z 26017KT 22/07 A30 RMK A01 T02150065  RH  038%=      5-min Rain = 0
KDC1 081909Z 25018G25KT 21/06 A30 RMK A01 T02140064  RH  038%=      5-min Rain = 0
KDC1 081910Z 25020KT 21/06 A30 RMK A01 T02140064  RH  038%=      5-min Rain = 0
KDC1 081911Z 26019KT 21/07 A30 RMK A01 T02130066  RH  038%=      5-min Rain = 0
KDC1 081912Z 26018KT 21/07 A30 RMK A01 T02130066  RH  038%=      5-min Rain = 0
KDC1 081913Z 26019KT 21/06 A30 RMK A01 T02130064  RH  038%=      5-min Rain = 0
KDC1 081914Z 26017KT 21/06 A30 RMK A01 T02140064  RH  038%=      5-min Rain = 0
KDC1 081915Z 26016G21KT 21/07 A30 RMK A01 T02130067  RH  039%=      5-min Rain = 0
KDC1 081916Z 26018G23KT 21/07 A2999 RMK A01 T02140066  RH  038%=      5-min Rain = 0
KDC1 081917Z 27017KT 21/07 A2999 RMK A01 T02140067  RH  038%=      5-min Rain = 0
KDC1 081918Z 26018KT 21/07 A2999 RMK A01 T02140069  RH  039%=      5-min Rain = 0
KDC1 081919Z 26020KT 21/07 A2999 RMK A01 T02140068  RH  039%=      5-min Rain = 0
KDC1 081920Z 26020KT 21/07 A30 RMK A01 T02130067  RH  039%=      5-min Rain = 0
KDC1 081921Z 26019KT 21/07 A30 RMK A01 T02120066  RH  039%=      5-min Rain = 0
KDC1 081922Z 26019KT 21/07 A30 RMK A01 T02130066  RH  039%=      5-min Rain = 0
KDC1 081923Z 26021G26KT 21/07 A30 RMK A01 T02120067  RH  039%=      5-min Rain = 0
KDC1 081924Z 26021G27KT 21/07 A30 RMK A01 T02120070  RH  040%=      5-min Rain = 0
KDC1 081925Z 26019KT 21/07 A30 RMK A01 T02100069  RH  040%=      5-min Rain = 0
KDC1 081926Z 26022KT 21/07 A30 RMK A01 T02090069  RH  040%=      5-min Rain = 0
KDC1 081927Z 26021KT 21/07 A30 RMK A01 T02080067  RH  040%=      5-min Rain = 0
KDC1 081928Z 26020KT 21/07 A30 RMK A01 T02080068  RH  040%=      5-min Rain = 0
KDC1 081929Z 26024G29KT 21/07 A30 RMK A01 T02070069  RH  041%=      5-min Rain = 0
KDC1 081930Z 26023G28KT 21/07 A30 RMK A01 T02060069  RH  041%=      5-min Rain = 0
KDC1 081931Z 26022KT 21/07 A30 RMK A01 T02050069  RH  041%=      5-min Rain = 0
KDC1 081932Z 26021KT 20/07 A30 RMK A01 T02040068  RH  041%=      5-min Rain = 0
KDC1 081933Z 26022KT 20/07 A30 RMK A01 T02040068  RH  041%=      5-min Rain = 0
KDC1 081934Z 26019KT 20/07 A30 RMK A01 T02040068  RH  041%=      5-min Rain = 0
KDC1 081935Z 26018KT 20/07 A30 RMK A01 T02040069  RH  042%=      5-min Rain = 0
KDC1 081936Z 26020KT 20/07 A30 RMK A01 T02030068  RH  041%=      5-min Rain = 0
KDC1 081937Z 26020G25KT 20/07 A30 RMK A01 T02030066  RH  041%=      5-min Rain = 0
KDC1 081938Z 26020KT 20/07 A30 RMK A01 T02030067  RH  041%=      5-min Rain = 0
KDC1 081939Z 27017G22KT 20/07 A30 RMK A01 T02030069  RH  042%=      5-min Rain = 0
KDC1 081940Z 27022KT 20/07 A30 RMK A01 T02040070  RH  042%=      5-min Rain = 0
KDC1 081941Z 27022KT 20/07 A30 RMK A01 T02040069  RH  041%=      5-min Rain = 0
KDC1 081942Z 27021KT 20/07 A30 RMK A01 T02030070  RH  042%=      5-min Rain = 0
KDC1 081943Z 27020KT 20/07 A30 RMK A01 T02020071  RH  043%=      5-min Rain = 0
KDC1 081944Z 27020KT 20/07 A30 RMK A01 T02020071  RH  043%=      5-min Rain = 0
KDC1 081945Z 27023KT 20/07 A30 RMK A01 T02010070  RH  042%=      5-min Rain = 0
KDC1 081946Z 27021KT 20/07 A30 RMK A01 T02010070  RH  042%=      5-min Rain = 0
KDC1 081947Z 27021G27KT 20/07 A30 RMK A01 T02010069  RH  042%=      5-min Rain = 0
KDC1 081948Z 27021KT 20/07 A30 RMK A01 T02010069  RH  042%=      5-min Rain = 0
KDC1 081949Z 27022KT 20/07 A2999 RMK A01 T02010069  RH  042%=      5-min Rain = 0
KDC1 081950Z 27021KT 20/07 A2999 RMK A01 T02010068  RH  042%=      5-min Rain = 0
KDC1 081951Z 28018KT 20/07 A2999 RMK A01 T02010068  RH  042%=      5-min Rain = 0
KDC1 081952Z 27018KT 20/07 A2999 RMK A01 T02020070  RH  043%=      5-min Rain = 0
KDC1 081953Z 27019KT 20/07 A2999 RMK A01 T02020070  RH  042%=      5-min Rain = 0
KDC1 081954Z 27019KT 20/07 A2999 RMK A01 T02020068  RH  042%=      5-min Rain = 0
KDC1 081955Z 26016G21KT 20/07 A2999 RMK A01 T02020070  RH  042%=      5-min Rain = 0
KDC1 081956Z 26015KT 20/07 A2999 RMK A01 T02020068  RH  042%=      5-min Rain = 0
KDC1 081957Z 26017KT 20/07 A2999 RMK A01 T02020069  RH  042%=      5-min Rain = 0
KDC1 081958Z 26021KT 20/07 A2999 RMK A01 T02010068  RH  042%=      5-min Rain = 0
KDC1 081959Z 27021KT 20/07 A2999 RMK A01 T02000067  RH  042%=      5-min Rain = 0
KDC1 082000Z 27022KT 20/07 A2999 RMK A01 T02000066  RH  042%=      5-min Rain = 0
KDC1 082001Z 27021KT 20/07 A2999 RMK A01 T02000065  RH  041%=      5-min Rain = 0
KDC1 082002Z 26019G26KT 20/07 A2999 RMK A01 T02000066  RH  042%=      5-min Rain = 0
KDC1 082003Z 26020KT 20/06 A2999 RMK A01 T02000064  RH  041%=      5-min Rain = 0
KDC1 082004Z 25020KT 20/06 A2999 RMK A01 T02000063  RH  041%=      5-min Rain = 0
KDC1 082005Z 26017KT 20/06 A2999 RMK A01 T01990063  RH  041%=      5-min Rain = 0
KDC1 082006Z 26016KT 20/06 A2999 RMK A01 T01990063  RH  041%=      5-min Rain = 0
KDC1 082007Z 26017KT 20/06 A2999 RMK A01 T02000063  RH  041%=      5-min Rain = 0
KDC1 082008Z 26017KT 20/07 A2999 RMK A01 T02000065  RH  041%=      5-min Rain = 0
KDC1 082009Z 26015KT 20/06 A2999 RMK A01 T02000064  RH  041%=      5-min Rain = 0
KDC1 082010Z 27013KT 20/07 A2999 RMK A01 T02010066  RH  041%=      5-min Rain = 0
KDC1 082011Z 27014KT 20/07 A2999 RMK A01 T02010068  RH  042%=      5-min Rain = 0
KDC1 082012Z 27016KT 20/07 A2999 RMK A01 T02020067  RH  042%=      5-min Rain = 0
KDC1 082013Z 27016G21KT 20/07 A2999 RMK A01 T02020067  RH  042%=      5-min Rain = 0
KDC1 082014Z 28017KT 20/07 A2999 RMK A01 T02030066  RH  041%=      5-min Rain = 0
KDC1 082015Z 27018KT 20/07 A2999 RMK A01 T02030066  RH  041%=      5-min Rain = 0
KDC1 082016Z 27018KT 20/07 A2999 RMK A01 T02040066  RH  041%=      5-min Rain = 0
KDC1 082017Z 26017KT 20/07 A2999 RMK A01 T02040066  RH  041%=      5-min Rain = 0
KDC1 082018Z 27020KT 20/06 A2999 RMK A01 T02030063  RH  040%=      5-min Rain = 0
KDC1 082019Z 26021KT 20/06 A2999 RMK A01 T02030064  RH  040%=      5-min Rain = 0
KDC1 082020Z 27019KT 20/06 A2999 RMK A01 T02020063  RH  040%=      5-min Rain = 0
KDC1 082021Z 27019KT 20/06 A2999 RMK A01 T02020064  RH  041%=      5-min Rain = 0
KDC1 082022Z 27020KT 20/07 A2999 RMK A01 T02020066  RH  041%=      5-min Rain = 0
KDC1 082023Z 26018G23KT 20/07 A2999 RMK A01 T02020066  RH  041%=      5-min Rain = 0
KDC1 082024Z 26018G23KT 20/07 A2999 RMK A01 T02020067  RH  042%=      5-min Rain = 0
KDC1 082025Z 26020KT 20/07 A2999 RMK A01 T02020066  RH  041%=      5-min Rain = 0
KDC1 082026Z 26022KT 20/07 A2999 RMK A01 T02020065  RH  041%=      5-min Rain = 0
KDC1 082027Z 26017KT 20/06 A2999 RMK A01 T02040064  RH  040%=      5-min Rain = 0
KDC1 082028Z 26017KT 21/07 A2999 RMK A01 T02050067  RH  041%=      5-min Rain = 0
KDC1 082029Z 27019KT 21/07 A2999 RMK A01 T02060068  RH  041%=      5-min Rain = 0
KDC1 082030Z 27019KT 21/06 A2999 RMK A01 T02060064  RH  040%=      5-min Rain = 0
KDC1 082031Z 27017KT 21/07 A2998 RMK A01 T02070067  RH  040%=      5-min Rain = 0
KDC1 082032Z 27018KT 21/07 A2998 RMK A01 T02070066  RH  040%=      5-min Rain = 0
KDC1 082033Z 27019KT 21/07 A2998 RMK A01 T02070065  RH  040%=      5-min Rain = 0
KDC1 082034Z 27018KT 21/06 A2998 RMK A01 T02060064  RH  040%=      5-min Rain = 0
KDC1 082035Z 26016KT 21/06 A2998 RMK A01 T02050064  RH  040%=      5-min Rain = 0
KDC1 082036Z 27014KT 21/07 A2998 RMK A01 T02050065  RH  040%=      5-min Rain = 0
KDC1 082037Z 28014KT 21/07 A2998 RMK A01 T02050067  RH  041%=      5-min Rain = 0
KDC1 082038Z 27015KT 21/07 A2998 RMK A01 T02050070  RH  042%=      5-min Rain = 0
KDC1 082039Z 26017KT 21/07 A2998 RMK A01 T02050070  RH  042%=      5-min Rain = 0
KDC1 082040Z 26019KT 20/07 A2998 RMK A01 T02040067  RH  041%=      5-min Rain = 0
KDC1 082041Z 26018G23KT 20/07 A2997 RMK A01 T02030066  RH  041%=      5-min Rain = 0
KDC1 082042Z 27016KT 20/07 A2997 RMK A01 T02030068  RH  042%=      5-min Rain = 0
KDC1 082043Z 26014G21KT 20/07 A2997 RMK A01 T02030069  RH  042%=      5-min Rain = 0
KDC1 082044Z 26017G22KT 20/07 A2997 RMK A01 T02020069  RH  042%=      5-min Rain = 0
KDC1 082045Z 26017KT 20/07 A2997 RMK A01 T02020069  RH  042%=      5-min Rain = 0
KDC1 082046Z 26021KT 20/07 A2997 RMK A01 T02010068  RH  042%=      5-min Rain = 0
KDC1 082047Z 26017KT 20/07 A2997 RMK A01 T02000068  RH  042%=      5-min Rain = 0
KDC1 082048Z 26016KT 20/07 A2997 RMK A01 T02000070  RH  043%=      5-min Rain = 0
KDC1 082049Z 25016KT 20/07 A2997 RMK A01 T02010069  RH  042%=      5-min Rain = 0
KDC1 082050Z 26018KT 20/07 A2997 RMK A01 T02030070  RH  042%=      5-min Rain = 0
KDC1 082051Z 26016KT 20/07 A2997 RMK A01 T02030070  RH  042%=      5-min Rain = 0
KDC1 082052Z 26020KT 20/07 A2997 RMK A01 T02030070  RH  042%=      5-min Rain = 0
KDC1 082053Z 26017KT 20/07 A2997 RMK A01 T02020071  RH  042%=      5-min Rain = 0
KDC1 082054Z 26018KT 20/07 A2997 RMK A01 T02010071  RH  043%=      5-min Rain = 0
KDC1 082055Z 27019KT 20/07 A2997 RMK A01 T02010070  RH  043%=      5-min Rain = 0
KDC1 082056Z 27019KT 20/07 A2997 RMK A01 T02020072  RH  043%=      5-min Rain = 0
KDC1 082057Z 26019KT 20/07 A2997 RMK A01 T02030072  RH  042%=      5-min Rain = 0
KDC1 082058Z 26018G23KT 20/07 A2997 RMK A01 T02040070  RH  042%=      5-min Rain = 0
KDC1 082059Z 26018KT 21/07 A2997 RMK A01 T02050072  RH  042%=      5-min Rain = 0
KDC1 082100Z 26018KT 21/07 A2997 RMK A01 T02060072  RH  042%=      5-min Rain = 0
KDC1 082101Z 26018KT 21/07 A2998 RMK A01 T02060073  RH  042%=      5-min Rain = 0
KDC1 082102Z 27019KT 21/07 A2998 RMK A01 T02050073  RH  043%=      5-min Rain = 0
KDC1 082103Z 27020KT 20/07 A2998 RMK A01 T02040072  RH  042%=      5-min Rain = 0
KDC1 082104Z 27019G25KT 20/07 A2998 RMK A01 T02020071  RH  043%=      5-min Rain = 0
KDC1 082105Z 27023KT 20/07 A2998 RMK A01 T02010070  RH  043%=      5-min Rain = 0
KDC1 082106Z 27020KT 20/07 A2998 RMK A01 T01990068  RH  042%=      5-min Rain = 0
KDC1 082107Z 27018KT 20/07 A2998 RMK A01 T01980068  RH  043%=      5-min Rain = 0
KDC1 082108Z 26018KT 20/07 A2998 RMK A01 T01980070  RH  043%=      5-min Rain = 0
KDC1 082109Z 27019KT 20/07 A2998 RMK A01 T01970067  RH  043%=      5-min Rain = 0
KDC1 082110Z 27017KT 20/07 A2998 RMK A01 T01970069  RH  043%=      5-min Rain = 0
KDC1 082111Z 27014KT 20/07 A2998 RMK A01 T01970070  RH  044%=      5-min Rain = 0
KDC1 082112Z 26014KT 20/07 A2998 RMK A01 T01970072  RH  044%=      5-min Rain = 0
KDC1 082113Z 27016KT 20/07 A2998 RMK A01 T01970070  RH  044%=      5-min Rain = 0
KDC1 082114Z 26014KT 20/07 A2998 RMK A01 T01970070  RH  044%=      5-min Rain = 0
KDC1 082115Z 26017KT 20/07 A2998 RMK A01 T01970070  RH  043%=      5-min Rain = 0
KDC1 082116Z 26015KT 20/07 A2998 RMK A01 T01970069  RH  043%=      5-min Rain = 0
KDC1 082117Z 27016KT 20/07 A2998 RMK A01 T01980069  RH  043%=      5-min Rain = 0
KDC1 082118Z 27016KT 20/07 A2998 RMK A01 T01970070  RH  044%=      5-min Rain = 0
KDC1 082119Z 27019KT 20/07 A2997 RMK A01 T01970071  RH  044%=      5-min Rain = 0
KDC1 082120Z 27018KT 20/07 A2997 RMK A01 T01970069  RH  043%=      5-min Rain = 0
KDC1 082121Z 26017G23KT 20/07 A2997 RMK A01 T01970071  RH  044%=      5-min Rain = 0
KDC1 082122Z 27019KT 20/07 A2998 RMK A01 T01970070  RH  044%=      5-min Rain = 0
KDC1 082123Z 26019KT 20/07 A2997 RMK A01 T01970070  RH  044%=      5-min Rain = 0
KDC1 082124Z 26019KT 20/07 A2997 RMK A01 T01970070  RH  044%=      5-min Rain = 0
KDC1 082125Z 27019KT 20/07 A2997 RMK A01 T01980070  RH  044%=      5-min Rain = 0
KDC1 082126Z 26020KT 20/07 A2997 RMK A01 T01970070  RH  044%=      5-min Rain = 0
KDC1 082127Z 26016KT 20/07 A2997 RMK A01 T01970069  RH  043%=      5-min Rain = 0
KDC1 082128Z 26017KT 20/07 A2997 RMK A01 T01970071  RH  044%=      5-min Rain = 0
KDC1 082129Z 27016KT 20/07 A2997 RMK A01 T01970071  RH  044%=      5-min Rain = 0
KDC1 082130Z 27019KT 20/07 A2997 RMK A01 T01970069  RH  043%=      5-min Rain = 0
KDC1 082131Z 27019KT 20/07 A2997 RMK A01 T01980069  RH  043%=      5-min Rain = 0
KDC1 082132Z 27019KT 20/07 A2997 RMK A01 T01980070  RH  044%=      5-min Rain = 0
KDC1 082133Z 28018KT 20/07 A2997 RMK A01 T01980071  RH  044%=      5-min Rain = 0
KDC1 082134Z 27018KT 20/07 A2997 RMK A01 T01980071  RH  044%=      5-min Rain = 0
KDC1 082135Z 26017KT 20/07 A2997 RMK A01 T01980071  RH  044%=      5-min Rain = 0
KDC1 082136Z 25015KT 20/07 A2998 RMK A01 T01980073  RH  044%=      5-min Rain = 0
KDC1 082137Z 27016KT 20/08 A2998 RMK A01 T01980075  RH  045%=      5-min Rain = 0
KDC1 082138Z 27017KT 20/07 A2998 RMK A01 T01990071  RH  043%=      5-min Rain = 0
KDC1 082139Z 26016KT 20/07 A2998 RMK A01 T01980070  RH  043%=      5-min Rain = 0
KDC1 082140Z 27015KT 20/07 A2998 RMK A01 T01990072  RH  044%=      5-min Rain = 0
KDC1 082141Z 27018KT 20/07 A2998 RMK A01 T01990072  RH  044%=      5-min Rain = 0
KDC1 082142Z 26019KT 20/07 A2998 RMK A01 T01990071  RH  043%=      5-min Rain = 0
KDC1 082143Z 27017KT 20/07 A2998 RMK A01 T01980071  RH  044%=      5-min Rain = 0
KDC1 082144Z 26016KT 20/07 A2998 RMK A01 T01980072  RH  044%=      5-min Rain = 0
KDC1 082145Z 26015KT 20/07 A2998 RMK A01 T01970072  RH  044%=      5-min Rain = 0
KDC1 082146Z 26015KT 20/07 A2998 RMK A01 T01970074  RH  045%=      5-min Rain = 0
KDC1 082147Z 26013KT 20/07 A2998 RMK A01 T01960074  RH  045%=      5-min Rain = 0
KDC1 082148Z 26014KT 20/07 A2998 RMK A01 T01950074  RH  045%=      5-min Rain = 0
KDC1 082149Z 25014KT 20/07 A2998 RMK A01 T01950074  RH  045%=      5-min Rain = 0
KDC1 082150Z 25015KT 19/07 A2998 RMK A01 T01940074  RH  046%=      5-min Rain = 0
KDC1 082151Z 25013KT 19/07 A2998 RMK A01 T01930073  RH  046%=      5-min Rain = 0
KDC1 082152Z 25013KT 19/07 A2998 RMK A01 T01930073  RH  046%=      5-min Rain = 0
KDC1 082153Z 25014KT 19/07 A2998 RMK A01 T01920073  RH  046%=      5-min Rain = 0
KDC1 082154Z 25014KT 19/07 A2998 RMK A01 T01920072  RH  046%=      5-min Rain = 0
KDC1 082155Z 26012KT 19/07 A2998 RMK A01 T01920074  RH  046%=      5-min Rain = 0
KDC1 082156Z 26013KT 19/08 A2998 RMK A01 T01920076  RH  047%=      5-min Rain = 0
KDC1 082157Z 26011KT 19/08 A2998 RMK A01 T01920077  RH  047%=      5-min Rain = 0
KDC1 082158Z 25011KT 19/08 A2998 RMK A01 T01920075  RH  047%=      5-min Rain = 0
KDC1 082159Z 25010KT 19/08 A2998 RMK A01 T01930076  RH  047%=      5-min Rain = 0
KDC1 082200Z 25011KT 19/08 A2997 RMK A01 T01930077  RH  047%=      5-min Rain = 0
KDC1 082201Z 25014KT 19/08 A2998 RMK A01 T01940075  RH  046%=      5-min Rain = 0
KDC1 082202Z 25012KT 19/08 A2998 RMK A01 T01940075  RH  046%=      5-min Rain = 0
KDC1 082203Z 26014KT 19/08 A2998 RMK A01 T01940075  RH  046%=      5-min Rain = 0
KDC1 082204Z 25012KT 20/07 A2998 RMK A01 T01950074  RH  046%=      5-min Rain = 0
KDC1 082205Z 25010KT 20/08 A2998 RMK A01 T01960077  RH  046%=      5-min Rain = 0
KDC1 082206Z 25012KT 20/08 A2998 RMK A01 T01950079  RH  047%=      5-min Rain = 0
KDC1 082207Z 25015KT 20/08 A2998 RMK A01 T01950077  RH  046%=      5-min Rain = 0
KDC1 082208Z 25016KT 20/08 A2998 RMK A01 T01960075  RH  045%=      5-min Rain = 0
KDC1 082209Z 25016KT 20/07 A2998 RMK A01 T01950073  RH  045%=      5-min Rain = 0
KDC1 082210Z 25014KT 20/07 A2998 RMK A01 T01950074  RH  045%=      5-min Rain = 0
KDC1 082211Z 25015KT 19/08 A2998 RMK A01 T01940075  RH  046%=      5-min Rain = 0
KDC1 082212Z 25013KT 19/07 A2998 RMK A01 T01940074  RH  046%=      5-min Rain = 0
KDC1 082213Z 25013KT 19/08 A2998 RMK A01 T01930077  RH  047%=      5-min Rain = 0
KDC1 082214Z 25013KT 19/08 A2998 RMK A01 T01930076  RH  047%=      5-min Rain = 0
KDC1 082215Z 25013KT 19/08 A2998 RMK A01 T01930077  RH  047%=      5-min Rain = 0
KDC1 082216Z 25013KT 19/08 A2997 RMK A01 T01930077  RH  047%=      5-min Rain = 0
KDC1 082217Z 26014KT 19/08 A2997 RMK A01 T01930075  RH  046%=      5-min Rain = 0
KDC1 082218Z 26014KT 19/08 A2997 RMK A01 T01930075  RH  046%=      5-min Rain = 0
KDC1 082219Z 26016KT 19/08 A2997 RMK A01 T01930075  RH  046%=      5-min Rain = 0
KDC1 082220Z 26016KT 19/07 A2997 RMK A01 T01930074  RH  046%=      5-min Rain = 0
KDC1 082221Z 26015KT 19/07 A2998 RMK A01 T01930074  RH  046%=      5-min Rain = 0
KDC1 082222Z 25015KT 19/07 A2998 RMK A01 T01930073  RH  046%=      5-min Rain = 0
KDC1 082223Z 26017KT 19/07 A2998 RMK A01 T01930073  RH  046%=      5-min Rain = 0
KDC1 082224Z 26013KT 19/07 A2998 RMK A01 T01930074  RH  046%=      5-min Rain = 0
KDC1 082225Z 26013KT 19/08 A2998 RMK A01 T01920077  RH  047%=      5-min Rain = 0
KDC1 082226Z 26013KT 19/08 A2998 RMK A01 T01920075  RH  047%=      5-min Rain = 0
KDC1 082227Z 26012KT 19/07 A2998 RMK A01 T01910074  RH  047%=      5-min Rain = 0
KDC1 082228Z 25010KT 19/08 A2998 RMK A01 T01910076  RH  047%=      5-min Rain = 0
KDC1 082229Z 26011KT 19/08 A2998 RMK A01 T01910077  RH  048%=      5-min Rain = 0
KDC1 082230Z 26011KT 19/08 A2998 RMK A01 T01900077  RH  048%=      5-min Rain = 0
KDC1 082231Z 26012KT 19/08 A2998 RMK A01 T01900076  RH  048%=      5-min Rain = 0
KDC1 082232Z 26011KT 19/08 A2998 RMK A01 T01900075  RH  047%=      5-min Rain = 0
KDC1 082233Z 26011KT 19/08 A2998 RMK A01 T01900075  RH  047%=      5-min Rain = 0
KDC1 082234Z 26013KT 19/08 A2998 RMK A01 T01900075  RH  047%=      5-min Rain = 0
KDC1 082235Z 26013KT 19/08 A2998 RMK A01 T01900075  RH  047%=      5-min Rain = 0
KDC1 082236Z 26015G20KT 19/07 A2998 RMK A01 T01900074  RH  047%=      5-min Rain = 0
KDC1 082237Z 27016KT 19/07 A2998 RMK A01 T01900072  RH  046%=      5-min Rain = 0
KDC1 082238Z 27016KT 19/07 A2998 RMK A01 T01900071  RH  046%=      5-min Rain = 0
KDC1 082239Z 27014KT 19/07 A2998 RMK A01 T01900072  RH  046%=      5-min Rain = 0
KDC1 082240Z 26013KT 19/07 A2998 RMK A01 T01900073  RH  047%=      5-min Rain = 0
KDC1 082241Z 26012KT 19/08 A2998 RMK A01 T01900075  RH  047%=      5-min Rain = 0
KDC1 082242Z 25014KT 19/08 A2998 RMK A01 T01900075  RH  047%=      5-min Rain = 0
KDC1 082243Z 25013KT 19/07 A2998 RMK A01 T01890074  RH  047%=      5-min Rain = 0
KDC1 082244Z 25014KT 19/07 A2998 RMK A01 T01890073  RH  047%=      5-min Rain = 0
KDC1 082245Z 26016KT 19/07 A2998 RMK A01 T01880072  RH  047%=      5-min Rain = 0
KDC1 082246Z 26015KT 19/07 A2998 RMK A01 T01880068  RH  046%=      5-min Rain = 0
KDC1 082247Z 26013KT 19/07 A2998 RMK A01 T01890070  RH  046%=      5-min Rain = 0
KDC1 082248Z 25012KT 19/07 A2998 RMK A01 T01890072  RH  047%=      5-min Rain = 0
KDC1 082249Z 25012G17KT 19/07 A2998 RMK A01 T01880072  RH  047%=      5-min Rain = 0
KDC1 082250Z 25015KT 19/07 A2998 RMK A01 T01880072  RH  047%=      5-min Rain = 0
KDC1 082251Z 26015KT 19/07 A2998 RMK A01 T01880071  RH  047%=      5-min Rain = 0
KDC1 082252Z 26016KT 19/07 A2998 RMK A01 T01880071  RH  046%=      5-min Rain = 0
KDC1 082253Z 27018KT 19/07 A2998 RMK A01 T01880068  RH  046%=      5-min Rain = 0
KDC1 082254Z 27019KT 19/07 A2998 RMK A01 T01880068  RH  046%=      5-min Rain = 0
KDC1 082255Z 26018KT 19/07 A2998 RMK A01 T01880067  RH  045%=      5-min Rain = 0
KDC1 082256Z 26015KT 19/07 A2998 RMK A01 T01880069  RH  046%=      5-min Rain = 0
KDC1 082257Z 26013KT 19/07 A2998 RMK A01 T01880071  RH  046%=      5-min Rain = 0
KDC1 082258Z 26012KT 19/07 A2998 RMK A01 T01880072  RH  047%=      5-min Rain = 0
KDC1 082259Z 26015KT 19/07 A2998 RMK A01 T01880072  RH  047%=      5-min Rain = 0
KDC1 082300Z 26015KT 19/07 A2998 RMK A01 T01880070  RH  046%=      5-min Rain = 0
KDC1 082301Z 26014KT 19/07 A2998 RMK A01 T01880072  RH  047%=      5-min Rain = 0
KDC1 082302Z 26017KT 19/07 A2998 RMK A01 T01880072  RH  047%=      5-min Rain = 0
KDC1 082303Z 26018KT 19/07 A2998 RMK A01 T01880070  RH  046%=      5-min Rain = 0
KDC1 082304Z 26018KT 19/07 A2998 RMK A01 T01880070  RH  046%=      5-min Rain = 0
KDC1 082305Z 26017KT 19/07 A2998 RMK A01 T01870070  RH  046%=      5-min Rain = 0
KDC1 082306Z 26016G22KT 19/07 A2998 RMK A01 T01870071  RH  047%=      5-min Rain = 0
KDC1 082307Z 26019KT 19/07 A2998 RMK A01 T01860070  RH  047%=      5-min Rain = 0
KDC1 082308Z 27017KT 19/07 A2999 RMK A01 T01870070  RH  047%=      5-min Rain = 0
KDC1 082309Z 27017KT 19/07 A2999 RMK A01 T01860070  RH  047%=      5-min Rain = 0
KDC1 082310Z 27018KT 19/07 A2999 RMK A01 T01850070  RH  047%=      5-min Rain = 0
KDC1 082311Z 27018KT 19/07 A2999 RMK A01 T01860070  RH  047%=      5-min Rain = 0
KDC1 082312Z 27016KT 19/07 A2999 RMK A01 T01850071  RH  047%=      5-min Rain = 0
KDC1 082313Z 27019KT 18/07 A2999 RMK A01 T01840069  RH  047%=      5-min Rain = 0
KDC1 082314Z 27014KT 18/07 A2999 RMK A01 T01840070  RH  047%=      5-min Rain = 0
KDC1 082315Z 27013KT 18/07 A2999 RMK A01 T01840072  RH  048%=      5-min Rain = 0
KDC1 082316Z 27013KT 18/07 A2999 RMK A01 T01830073  RH  049%=      5-min Rain = 0
KDC1 082317Z 27015KT 18/07 A2999 RMK A01 T01820073  RH  049%=      5-min Rain = 0
KDC1 082318Z 27017KT 18/07 A2999 RMK A01 T01820071  RH  048%=      5-min Rain = 0
KDC1 082319Z 27015KT 18/07 A2999 RMK A01 T01820070  RH  048%=      5-min Rain = 0
KDC1 082320Z 27017KT 18/07 A2999 RMK A01 T01820071  RH  048%=      5-min Rain = 0
KDC1 082321Z 27017G22KT 18/07 A2999 RMK A01 T01820071  RH  048%=      5-min Rain = 0
KDC1 082322Z 27019KT 18/07 A2999 RMK A01 T01820069  RH  048%=      5-min Rain = 0
KDC1 082323Z 27019KT 18/07 A2999 RMK A01 T01820070  RH  048%=      5-min Rain = 0
KDC1 082324Z 26018KT 18/07 A2999 RMK A01 T01820070  RH  048%=      5-min Rain = 0
KDC1 082325Z 26017KT 18/07 A2999 RMK A01 T01820070  RH  048%=      5-min Rain = 0
KDC1 082326Z 26015KT 18/07 A2999 RMK A01 T01830071  RH  048%=      5-min Rain = 0
KDC1 082327Z 26014G19KT 18/07 A2999 RMK A01 T01820072  RH  049%=      5-min Rain = 0
KDC1 082328Z 26014G20KT 18/07 A2999 RMK A01 T01810072  RH  049%=      5-min Rain = 0
KDC1 082329Z 25015KT 18/07 A2999 RMK A01 T01810072  RH  049%=      5-min Rain = 0
KDC1 082330Z 26013KT 18/07 A2999 RMK A01 T01810072  RH  049%=      5-min Rain = 0
KDC1 082331Z 26014KT 18/07 A2999 RMK A01 T01800073  RH  049%=      5-min Rain = 0
KDC1 082332Z 26013KT 18/07 A2999 RMK A01 T01790073  RH  050%=      5-min Rain = 0
KDC1 082333Z 26014KT 18/07 A2999 RMK A01 T01790074  RH  050%=      5-min Rain = 0
KDC1 082334Z 26015KT 18/07 A2999 RMK A01 T01790073  RH  050%=      5-min Rain = 0
KDC1 082335Z 26015KT 18/07 A2999 RMK A01 T01790074  RH  050%=      5-min Rain = 0
KDC1 082336Z 26015KT 18/07 A2999 RMK A01 T01780073  RH  050%=      5-min Rain = 0
KDC1 082337Z 26012KT 18/07 A2999 RMK A01 T01780073  RH  050%=      5-min Rain = 0
KDC1 082338Z 26012KT 18/07 A2999 RMK A01 T01780074  RH  050%=      5-min Rain = 0
KDC1 082339Z 26011KT 18/07 A2999 RMK A01 T01780074  RH  051%=      5-min Rain = 0
KDC1 082340Z 26013KT 18/07 A2999 RMK A01 T01770073  RH  051%=      5-min Rain = 0
KDC1 082341Z 27015KT 18/07 A2999 RMK A01 T01760073  RH  051%=      5-min Rain = 0
KDC1 082342Z 28013KT 18/07 A2999 RMK A01 T01760073  RH  051%=      5-min Rain = 0
KDC1 082343Z 28014KT 18/07 A2999 RMK A01 T01750073  RH  051%=      5-min Rain = 0
KDC1 082344Z 27013KT 17/07 A2999 RMK A01 T01740073  RH  051%=      5-min Rain = 0
KDC1 082345Z 27012KT 17/07 A2999 RMK A01 T01740074  RH  052%=      5-min Rain = 0
KDC1 082346Z 26009KT 17/07 A2999 RMK A01 T01730074  RH  052%=      5-min Rain = 0
KDC1 082347Z 26009KT 17/08 A2999 RMK A01 T01730075  RH  052%=      5-min Rain = 0
KDC1 082348Z 26011KT 17/08 A2999 RMK A01 T01720076  RH  053%=      5-min Rain = 0
KDC1 082349Z 26013KT 17/07 A2999 RMK A01 T01720074  RH  053%=      5-min Rain = 0
KDC1 082350Z 27013KT 17/07 A2999 RMK A01 T01720073  RH  052%=      5-min Rain = 0
KDC1 082351Z 27013KT 17/07 A2999 RMK A01 T01730074  RH  052%=      5-min Rain = 0
KDC1 082352Z 27012KT 17/08 A2999 RMK A01 T01730075  RH  053%=      5-min Rain = 0
KDC1 082353Z 27012KT 17/08 A2999 RMK A01 T01720076  RH  053%=      5-min Rain = 0
KDC1 082354Z 26010KT 17/08 A2999 RMK A01 T01720075  RH  053%=      5-min Rain = 0
KDC1 082355Z 26010KT 17/08 A2999 RMK A01 T01710076  RH  053%=      5-min Rain = 0
KDC1 082356Z 26012KT 17/08 A2999 RMK A01 T01710075  RH  053%=      5-min Rain = 0
KDC1 082357Z 27011KT 17/08 A2999 RMK A01 T01710076  RH  053%=      5-min Rain = 0
KDC1 082358Z 27011KT 17/08 A2999 RMK A01 T01710077  RH  054%=      5-min Rain = 0
KDC1 082359Z 27011KT 17/08 A2999 RMK A01 T01700077  RH  054%=      5-min Rain = 0
KDC1 090000Z 26011KT 17/08 A2999 RMK A01 T01690077  RH  055%=      5-min Rain = 0
KDC1 090001Z 26012KT 17/08 A2999 RMK A01 T01690076  RH  054%=      5-min Rain = 0
KDC1 090002Z 26011KT 17/08 A2999 RMK A01 T01710076  RH  054%=      5-min Rain = 0
KDC1 090003Z 26009KT 17/08 A2999 RMK A01 T01710076  RH  054%=      5-min Rain = 0
KDC1 090004Z 26009KT 17/08 A2999 RMK A01 T01710076  RH  054%=      5-min Rain = 0
KDC1 090005Z 26010KT 17/08 A2999 RMK A01 T01700077  RH  054%=      5-min Rain = 0
KDC1 090006Z 26009KT 17/08 A2999 RMK A01 T01700076  RH  054%=      5-min Rain = 0
KDC1 090007Z 26009KT 17/08 A2999 RMK A01 T01690077  RH  054%=      5-min Rain = 0
KDC1 090008Z 26010KT 17/08 A2999 RMK A01 T01690077  RH  055%=      5-min Rain = 0
KDC1 090009Z 26010KT 17/08 A2999 RMK A01 T01680077  RH  055%=      5-min Rain = 0
KDC1 090010Z 25010KT 17/08 A2999 RMK A01 T01680077  RH  055%=      5-min Rain = 0
KDC1 090011Z 26010KT 17/08 A2999 RMK A01 T01680077  RH  055%=      5-min Rain = 0
KDC1 090012Z 26011KT 17/08 A2999 RMK A01 T01680077  RH  055%=      5-min Rain = 0
KDC1 090013Z 26010KT 17/08 A2999 RMK A01 T01680077  RH  055%=      5-min Rain = 0
KDC1 090014Z 26010KT 17/08 A2999 RMK A01 T01670077  RH  055%=      5-min Rain = 0
KDC1 090015Z 26012KT 17/08 A2999 RMK A01 T01670076  RH  055%=      5-min Rain = 0
KDC1 090016Z 26011KT 17/08 A2999 RMK A01 T01680077  RH  055%=      5-min Rain = 0
KDC1 090017Z 26010KT 17/08 A2999 RMK A01 T01690077  RH  055%=      5-min Rain = 0
KDC1 090018Z 26010KT 17/08 A2999 RMK A01 T01680077  RH  055%=      5-min Rain = 0
KDC1 090019Z 26011KT 17/08 A2998 RMK A01 T01680076  RH  055%=      5-min Rain = 0
KDC1 090020Z 26012KT 17/08 A2998 RMK A01 T01680076  RH  055%=      5-min Rain = 0
KDC1 090021Z 26010KT 17/08 A2998 RMK A01 T01680076  RH  055%=      5-min Rain = 0
KDC1 090022Z 26010KT 17/08 A2998 RMK A01 T01680077  RH  055%=      5-min Rain = 0
KDC1 090023Z 26011KT 17/08 A2998 RMK A01 T01690077  RH  055%=      5-min Rain = 0
KDC1 090024Z 26011KT 17/08 A2998 RMK A01 T01680077  RH  055%=      5-min Rain = 0
KDC1 090025Z 26012KT 17/08 A2999 RMK A01 T01680076  RH  055%=      5-min Rain = 0
KDC1 090026Z 26010KT 17/08 A2999 RMK A01 T01680076  RH  055%=      5-min Rain = 0
KDC1 090027Z 26009KT 17/08 A2999 RMK A01 T01680077  RH  055%=      5-min Rain = 0
KDC1 090028Z 26010KT 17/08 A2999 RMK A01 T01680077  RH  055%=      5-min Rain = 0
KDC1 090029Z 26010KT 17/08 A2999 RMK A01 T01680077  RH  055%=      5-min Rain = 0
KDC1 090030Z 26013KT 17/08 A2999 RMK A01 T01680076  RH  054%=      5-min Rain = 0
KDC1 090031Z 26011KT 17/08 A2999 RMK A01 T01680076  RH  055%=      5-min Rain = 0
KDC1 090032Z 26012KT 17/08 A2999 RMK A01 T01680075  RH  054%=      5-min Rain = 0
KDC1 090033Z 26012KT 17/08 A2999 RMK A01 T01680075  RH  054%=      5-min Rain = 0
KDC1 090034Z 26011KT 17/08 A2999 RMK A01 T01690075  RH  054%=      5-min Rain = 0
KDC1 090035Z 26011KT 17/08 A2999 RMK A01 T01680076  RH  055%=      5-min Rain = 0
KDC1 090036Z 26013KT 17/08 A2999 RMK A01 T01680075  RH  054%=      5-min Rain = 0
KDC1 090037Z 27013KT 17/07 A2999 RMK A01 T01680074  RH  054%=      5-min Rain = 0
KDC1 090038Z 26011KT 17/08 A2999 RMK A01 T01670075  RH  054%=      5-min Rain = 0
KDC1 090039Z 26010KT 17/08 A2999 RMK A01 T01670075  RH  054%=      5-min Rain = 0
KDC1 090040Z 26013G19KT 17/08 A2999 RMK A01 T01670075  RH  054%=      5-min Rain = 0
KDC1 090041Z 27016KT 17/07 A2999 RMK A01 T01670072  RH  054%=      5-min Rain = 0
KDC1 090042Z 26014KT 17/07 A2999 RMK A01 T01680071  RH  053%=      5-min Rain = 0
KDC1 090043Z 26015KT 17/07 A2999 RMK A01 T01680071  RH  053%=      5-min Rain = 0
KDC1 090044Z 26013G18KT 17/07 A30 RMK A01 T01680070  RH  052%=      5-min Rain = 0
KDC1 090045Z 27014KT 17/07 A30 RMK A01 T01680072  RH  053%=      5-min Rain = 0
KDC1 090046Z 27016KT 17/07 A30 RMK A01 T01670071  RH  053%=      5-min Rain = 0
KDC1 090047Z 27016KT 17/07 A30 RMK A01 T01670070  RH  053%=      5-min Rain = 0
KDC1 090048Z 27014KT 17/07 A30 RMK A01 T01670070  RH  053%=      5-min Rain = 0
KDC1 090049Z 27017KT 17/07 A30 RMK A01 T01670070  RH  053%=      5-min Rain = 0
KDC1 090050Z 27016KT 17/07 A30 RMK A01 T01670070  RH  053%=      5-min Rain = 0
KDC1 090051Z 27017KT 17/07 A30 RMK A01 T01670071  RH  053%=      5-min Rain = 0
KDC1 090052Z 27015KT 17/07 A30 RMK A01 T01660071  RH  053%=      5-min Rain = 0
KDC1 090053Z 27016KT 17/07 A30 RMK A01 T01660071  RH  054%=      5-min Rain = 0
KDC1 090054Z 27015KT 17/07 A30 RMK A01 T01650070  RH  053%=      5-min Rain = 0
KDC1 090055Z 27016KT 17/07 A30 RMK A01 T01660072  RH  054%=      5-min Rain = 0
KDC1 090056Z 27014KT 17/07 A30 RMK A01 T01650071  RH  054%=      5-min Rain = 0
KDC1 090057Z 27016KT 17/07 A30 RMK A01 T01650071  RH  054%=      5-min Rain = 0
KDC1 090058Z 27015KT 17/07 A30 RMK A01 T01660071  RH  054%=      5-min Rain = 0
KDC1 090059Z 27016KT 17/07 A30 RMK A01 T01660071  RH  054%=      5-min Rain = 0
KDC1 090100Z 27013KT 17/07 A30 RMK A01 T01660071  RH  054%=      5-min Rain = 0
KDC1 090101Z 27014G19KT 17/07 A30 RMK A01 T01650073  RH  054%=      5-min Rain = 0
KDC1 090102Z 27014KT 17/07 A30 RMK A01 T01650072  RH  054%=      5-min Rain = 0
KDC1 090103Z 26014KT 17/07 A30 RMK A01 T01650072  RH  054%=      5-min Rain = 0
KDC1 090104Z 26012KT 17/07 A30 RMK A01 T01650072  RH  054%=      5-min Rain = 0
KDC1 090105Z 27012KT 17/07 A30 RMK A01 T01650072  RH  054%=      5-min Rain = 0
KDC1 090106Z 26011KT 17/07 A30 RMK A01 T01650073  RH  055%=      5-min Rain = 0
KDC1 090107Z 27011KT 16/07 A30 RMK A01 T01640073  RH  055%=      5-min Rain = 0
KDC1 090108Z 27011KT 16/07 A30 RMK A01 T01630073  RH  055%=      5-min Rain = 0
KDC1 090109Z 27011KT 16/07 A30 RMK A01 T01630073  RH  055%=      5-min Rain = 0
KDC1 090110Z 27012KT 16/07 A30 RMK A01 T01630073  RH  055%=      5-min Rain = 0
KDC1 090111Z 27012KT 16/07 A30 RMK A01 T01630073  RH  055%=      5-min Rain = 0
KDC1 090112Z 27012G17KT 16/07 A30 RMK A01 T01630073  RH  055%=      5-min Rain = 0
KDC1 090113Z 27012KT 16/07 A30 RMK A01 T01630073  RH  055%=      5-min Rain = 0
KDC1 090114Z 27013KT 16/07 A30 RMK A01 T01630073  RH  055%=      5-min Rain = 0
KDC1 090115Z 27011KT 16/07 A30 RMK A01 T01630073  RH  055%=      5-min Rain = 0
KDC1 090116Z 27010G15KT 16/07 A30 RMK A01 T01630074  RH  055%=      5-min Rain = 0
KDC1 090117Z 27012KT 16/07 A30 RMK A01 T01630074  RH  056%=      5-min Rain = 0
KDC1 090118Z 27013KT 16/07 A30 RMK A01 T01620073  RH  055%=      5-min Rain = 0
KDC1 090119Z 27012KT 16/07 A30 RMK A01 T01630074  RH  056%=      5-min Rain = 0
KDC1 090120Z 27013KT 16/07 A30 RMK A01 T01630074  RH  056%=      5-min Rain = 0
KDC1 090121Z 27012KT 16/07 A30 RMK A01 T01620073  RH  055%=      5-min Rain = 0
KDC1 090122Z 27014KT 16/07 A30 RMK A01 T01630073  RH  055%=      5-min Rain = 0
KDC1 090123Z 27012KT 16/07 A30 RMK A01 T01630074  RH  055%=      5-min Rain = 0
KDC1 090124Z 27014KT 16/07 A30 RMK A01 T01630073  RH  055%=      5-min Rain = 0
KDC1 090125Z 27013KT 16/07 A30 RMK A01 T01620073  RH  055%=      5-min Rain = 0
KDC1 090126Z 27013KT 16/07 A30 RMK A01 T01630073  RH  055%=      5-min Rain = 0
KDC1 090127Z 27012KT 16/07 A30 RMK A01 T01630073  RH  055%=      5-min Rain = 0
KDC1 090128Z 27011KT 16/07 A2999 RMK A01 T01630074  RH  056%=      5-min Rain = 0
KDC1 090129Z 27011KT 16/07 A2999 RMK A01 T01620074  RH  056%=      5-min Rain = 0
KDC1 090130Z 27011KT 16/07 A2999 RMK A01 T01610074  RH  056%=      5-min Rain = 0
KDC1 090131Z 27011KT 16/07 A2999 RMK A01 T01610074  RH  056%=      5-min Rain = 0
KDC1 090132Z 26009KT 16/07 A2999 RMK A01 T01610074  RH  056%=      5-min Rain = 0
KDC1 090133Z 27009KT 16/07 A2999 RMK A01 T01610074  RH  056%=      5-min Rain = 0
KDC1 090134Z 26009KT 16/07 A2999 RMK A01 T01600074  RH  057%=      5-min Rain = 0
KDC1 090135Z 26012KT 16/07 A2999 RMK A01 T01600072  RH  056%=      5-min Rain = 0
KDC1 090136Z 27014G19KT 16/07 A2999 RMK A01 T01610071  RH  055%=      5-min Rain = 0
KDC1 090137Z 26011G18KT 16/07 A2999 RMK A01 T01630070  RH  054%=      5-min Rain = 0
KDC1 090138Z 26012KT 16/07 A2999 RMK A01 T01640072  RH  054%=      5-min Rain = 0
KDC1 090139Z 27013KT 16/07 A2999 RMK A01 T01630072  RH  055%=      5-min Rain = 0
KDC1 090140Z 27015KT 16/07 A2999 RMK A01 T01630071  RH  055%=      5-min Rain = 0
KDC1 090141Z 27016KT 16/07 A2999 RMK A01 T01620071  RH  054%=      5-min Rain = 0
KDC1 090142Z 27015KT 16/07 A2999 RMK A01 T01630070  RH  054%=      5-min Rain = 0
KDC1 090143Z 27015KT 16/07 A2999 RMK A01 T01630071  RH  054%=      5-min Rain = 0
KDC1 090144Z 27015KT 16/07 A2999 RMK A01 T01630070  RH  054%=      5-min Rain = 0
KDC1 090145Z 27014KT 16/07 A2999 RMK A01 T01630070  RH  054%=      5-min Rain = 0
KDC1 090146Z 27014KT 16/07 A2999 RMK A01 T01630071  RH  055%=      5-min Rain = 0
KDC1 090147Z 27016KT 16/07 A2999 RMK A01 T01620071  RH  055%=      5-min Rain = 0
KDC1 090148Z 27016KT 16/07 A2999 RMK A01 T01620070  RH  054%=      5-min Rain = 0
KDC1 090149Z 27017KT 16/07 A2999 RMK A01 T01620070  RH  054%=      5-min Rain = 0
KDC1 090150Z 27014KT 16/07 A2999 RMK A01 T01630070  RH  054%=      5-min Rain = 0
KDC1 090151Z 26013KT 16/07 A2999 RMK A01 T01630071  RH  055%=      5-min Rain = 0
KDC1 090152Z 26014KT 16/07 A2999 RMK A01 T01610071  RH  055%=      5-min Rain = 0
KDC1 090153Z 26012KT 16/07 A2999 RMK A01 T01610070  RH  055%=      5-min Rain = 0
KDC1 090154Z 26011G16KT 16/07 A2999 RMK A01 T01610070  RH  055%=      5-min Rain = 0
KDC1 090155Z 26014KT 16/07 A2999 RMK A01 T01620070  RH  054%=      5-min Rain = 0
KDC1 090156Z 26011KT 16/07 A2999 RMK A01 T01630069  RH  054%=      5-min Rain = 0
KDC1 090157Z 26012KT 16/07 A2999 RMK A01 T01630070  RH  054%=      5-min Rain = 0
KDC1 090158Z 26012KT 16/07 A2999 RMK A01 T01630070  RH  054%=      5-min Rain = 0
KDC1 090159Z 26013KT 16/07 A2999 RMK A01 T01620070  RH  054%=      5-min Rain = 0
KDC1 090200Z 26012KT 16/07 A2999 RMK A01 T01620069  RH  054%=      5-min Rain = 0
KDC1 090201Z 25013KT 16/07 A2999 RMK A01 T01620069  RH  054%=      5-min Rain = 0
KDC1 090202Z 26015KT 16/07 A2999 RMK A01 T01620068  RH  053%=      5-min Rain = 0
KDC1 090203Z 26011KT 16/07 A30 RMK A01 T01620067  RH  053%=      5-min Rain = 0
KDC1 090204Z 26013KT 16/07 A2999 RMK A01 T01620068  RH  054%=      5-min Rain = 0
KDC1 090205Z 26013KT 16/07 A2999 RMK A01 T01610067  RH  054%=      5-min Rain = 0
KDC1 090206Z 26012KT 16/07 A2999 RMK A01 T01610067  RH  054%=      5-min Rain = 0
KDC1 090207Z 25010KT 16/07 A2999 RMK A01 T01610067  RH  054%=      5-min Rain = 0
KDC1 090208Z 25010G15KT 16/07 A2999 RMK A01 T01600067  RH  054%=      5-min Rain = 0
KDC1 090209Z 26012KT 16/07 A2999 RMK A01 T01600067  RH  054%=      5-min Rain = 0
KDC1 090210Z 25011KT 16/07 A2999 RMK A01 T01590066  RH  054%=      5-min Rain = 0
KDC1 090211Z 25011KT 16/07 A2999 RMK A01 T01600067  RH  054%=      5-min Rain = 0
KDC1 090212Z 26010KT 16/07 A2999 RMK A01 T01600067  RH  054%=      5-min Rain = 0
KDC1 090213Z 25012KT 16/07 A2999 RMK A01 T01590067  RH  054%=      5-min Rain = 0
KDC1 090214Z 25011KT 16/07 A2999 RMK A01 T01590067  RH  054%=      5-min Rain = 0
KDC1 090215Z 25010KT 16/07 A2998 RMK A01 T01590067  RH  054%=      5-min Rain = 0
KDC1 090216Z 25010KT 16/07 A2998 RMK A01 T01590066  RH  054%=      5-min Rain = 0
KDC1 090217Z 24010KT 16/07 A2998 RMK A01 T01580067  RH  054%=      5-min Rain = 0
KDC1 090218Z 25011KT 16/07 A2998 RMK A01 T01580067  RH  055%=      5-min Rain = 0
KDC1 090219Z 25010KT 16/07 A2998 RMK A01 T01580066  RH  055%=      5-min Rain = 0
KDC1 090220Z 25012KT 16/07 A2998 RMK A01 T01580067  RH  055%=      5-min Rain = 0
KDC1 090221Z 24013KT 16/07 A2998 RMK A01 T01580065  RH  054%=      5-min Rain = 0
KDC1 090222Z 25011KT 16/07 A2999 RMK A01 T01590065  RH  054%=      5-min Rain = 0
KDC1 090223Z 25012KT 16/07 A2999 RMK A01 T01590066  RH  054%=      5-min Rain = 0
KDC1 090224Z 25012KT 16/07 A2999 RMK A01 T01580067  RH  054%=      5-min Rain = 0
KDC1 090225Z 25013KT 16/07 A2999 RMK A01 T01580067  RH  055%=      5-min Rain = 0
KDC1 090226Z 24012KT 16/07 A2999 RMK A01 T01580066  RH  054%=      5-min Rain = 0
KDC1 090227Z 25013KT 16/07 A2999 RMK A01 T01580066  RH  054%=      5-min Rain = 0
KDC1 090228Z 25010KT 16/07 A2999 RMK A01 T01580066  RH  054%=      5-min Rain = 0
KDC1 090229Z 25010KT 16/07 A2999 RMK A01 T01580068  RH  055%=      5-min Rain = 0
KDC1 090230Z 25011KT 16/07 A2998 RMK A01 T01580067  RH  055%=      5-min Rain = 0
KDC1 090231Z 25010KT 16/07 A2998 RMK A01 T01580067  RH  055%=      5-min Rain = 0
KDC1 090232Z 25013KT 16/07 A2998 RMK A01 T01570067  RH  055%=      5-min Rain = 0
KDC1 090233Z 25012KT 16/07 A2998 RMK A01 T01570066  RH  055%=      5-min Rain = 0
KDC1 090234Z 25011KT 16/07 A2998 RMK A01 T01580066  RH  054%=      5-min Rain = 0
KDC1 090235Z 25010KT 16/07 A2998 RMK A01 T01580066  RH  054%=      5-min Rain = 0
KDC1 090236Z 26011KT 16/07 A2998 RMK A01 T01580067  RH  055%=      5-min Rain = 0
KDC1 090237Z 25012KT 16/07 A2998 RMK A01 T01580067  RH  055%=      5-min Rain = 0
KDC1 090238Z 25010KT 16/07 A2998 RMK A01 T01580067  RH  055%=      5-min Rain = 0
KDC1 090239Z 25011KT 16/07 A2998 RMK A01 T01580067  RH  055%=      5-min Rain = 0
KDC1 090240Z 25011KT 16/07 A2998 RMK A01 T01570067  RH  055%=      5-min Rain = 0
KDC1 090241Z 25009KT 16/07 A2998 RMK A01 T01570066  RH  055%=      5-min Rain = 0
KDC1 090242Z 25010KT 16/07 A2998 RMK A01 T01570066  RH  055%=      5-min Rain = 0
KDC1 090243Z 25011KT 16/07 A2998 RMK A01 T01580065  RH  054%=      5-min Rain = 0
KDC1 090244Z 25011KT 16/07 A2998 RMK A01 T01580065  RH  054%=      5-min Rain = 0
KDC1 090245Z 25012KT 16/06 A2998 RMK A01 T01590064  RH  053%=      5-min Rain = 0
KDC1 090246Z 25010KT 16/07 A2998 RMK A01 T01590065  RH  053%=      5-min Rain = 0
KDC1 090247Z 25010KT 16/07 A2999 RMK A01 T01590066  RH  054%=      5-min Rain = 0
KDC1 090248Z 25009KT 16/07 A2999 RMK A01 T01580066  RH  054%=      5-min Rain = 0
KDC1 090249Z 25009KT 16/07 A2999 RMK A01 T01570066  RH  054%=      5-min Rain = 0
KDC1 090250Z 25010G16KT 16/07 A2999 RMK A01 T01570065  RH  054%=      5-min Rain = 0
KDC1 090251Z 25011KT 16/07 A2999 RMK A01 T01570065  RH  054%=      5-min Rain = 0
KDC1 090252Z 25013KT 16/06 A2999 RMK A01 T01580064  RH  054%=      5-min Rain = 0
KDC1 090253Z 26012KT 16/06 A2999 RMK A01 T01580064  RH  053%=      5-min Rain = 0
KDC1 090254Z 26012KT 16/07 A2999 RMK A01 T01580065  RH  054%=      5-min Rain = 0
KDC1 090255Z 26012KT 16/07 A30 RMK A01 T01580065  RH  054%=      5-min Rain = 0
KDC1 090256Z 25012KT 16/07 A30 RMK A01 T01580066  RH  054%=      5-min Rain = 0
KDC1 090257Z 26011KT 16/07 A30 RMK A01 T01570067  RH  055%=      5-min Rain = 0
KDC1 090258Z 26012KT 16/07 A30 RMK A01 T01570067  RH  055%=      5-min Rain = 0
KDC1 090259Z 25012KT 16/07 A2999 RMK A01 T01560067  RH  055%=      5-min Rain = 0
KDC1 090300Z 26012KT 16/07 A2999 RMK A01 T01560066  RH  055%=      5-min Rain = 0
KDC1 090301Z 26013KT 16/07 A2999 RMK A01 T01560067  RH  055%=      5-min Rain = 0
KDC1 090302Z 26012KT 16/07 A2999 RMK A01 T01560068  RH  056%=      5-min Rain = 0
KDC1 090303Z 25012G17KT 16/07 A2999 RMK A01 T01550068  RH  056%=      5-min Rain = 0
KDC1 090304Z 26014KT 16/07 A2999 RMK A01 T01560068  RH  056%=      5-min Rain = 0
KDC1 090305Z 26013KT 16/07 A2999 RMK A01 T01560069  RH  056%=      5-min Rain = 0
KDC1 090306Z 26014KT 16/07 A2999 RMK A01 T01550069  RH  057%=      5-min Rain = 0
KDC1 090307Z 26015KT 16/07 A2999 RMK A01 T01550070  RH  057%=      5-min Rain = 0
KDC1 090308Z 26013KT 16/07 A2999 RMK A01 T01550070  RH  057%=      5-min Rain = 0
KDC1 090309Z 26013KT 16/07 A2999 RMK A01 T01550070  RH  057%=      5-min Rain = 0
KDC1 090310Z 26011KT 16/07 A2999 RMK A01 T01550071  RH  057%=      5-min Rain = 0
KDC1 090311Z 26013G18KT 15/07 A2999 RMK A01 T01540071  RH  057%=      5-min Rain = 0
KDC1 090312Z 26015KT 15/07 A2999 RMK A01 T01540071  RH  058%=      5-min Rain = 0
KDC1 090313Z 26013KT 15/07 A2999 RMK A01 T01540071  RH  058%=      5-min Rain = 0
KDC1 090314Z 26015KT 16/07 A2999 RMK A01 T01550072  RH  058%=      5-min Rain = 0
KDC1 090315Z 26014KT 15/07 A2999 RMK A01 T01540072  RH  058%=      5-min Rain = 0
KDC1 090316Z 26014KT 15/07 A2999 RMK A01 T01540072  RH  058%=      5-min Rain = 0
KDC1 090317Z 25012KT 15/07 A2998 RMK A01 T01540073  RH  058%=      5-min Rain = 0
KDC1 090318Z 25014KT 15/07 A2998 RMK A01 T01540073  RH  058%=      5-min Rain = 0
KDC1 090319Z 26014KT 15/07 A2998 RMK A01 T01530073  RH  059%=      5-min Rain = 0
KDC1 090320Z 25014KT 15/07 A2998 RMK A01 T01530073  RH  059%=      5-min Rain = 0
KDC1 090321Z 25012KT 15/07 A2998 RMK A01 T01530073  RH  059%=      5-min Rain = 0
KDC1 090322Z 25014KT 15/07 A2998 RMK A01 T01530074  RH  059%=      5-min Rain = 0
KDC1 090323Z 26014KT 15/07 A2998 RMK A01 T01520073  RH  059%=      5-min Rain = 0
KDC1 090324Z 26011KT 15/07 A2998 RMK A01 T01530074  RH  059%=      5-min Rain = 0
KDC1 090325Z 26013KT 15/08 A2998 RMK A01 T01530075  RH  060%=      5-min Rain = 0
KDC1 090326Z 26014KT 15/08 A2998 RMK A01 T01520075  RH  060%=      5-min Rain = 0
KDC1 090327Z 26011KT 15/08 A2997 RMK A01 T01520075  RH  060%=      5-min Rain = 0
KDC1 090328Z 26012KT 15/08 A2997 RMK A01 T01520075  RH  060%=      5-min Rain = 0
KDC1 090329Z 25013G18KT 15/08 A2997 RMK A01 T01520076  RH  060%=      5-min Rain = 0
KDC1 090330Z 26011KT 15/08 A2997 RMK A01 T01520076  RH  061%=      5-min Rain = 0
KDC1 090331Z 26011KT 15/08 A2997 RMK A01 T01510076  RH  061%=      5-min Rain = 0
KDC1 090332Z 25012KT 15/08 A2997 RMK A01 T01500077  RH  061%=      5-min Rain = 0
KDC1 090333Z 26012G17KT 15/08 A2997 RMK A01 T01500077  RH  061%=      5-min Rain = 0
KDC1 090334Z 26013KT 15/08 A2998 RMK A01 T01500077  RH  062%=      5-min Rain = 0
KDC1 090335Z 25013KT 15/08 A2998 RMK A01 T01500077  RH  061%=      5-min Rain = 0
KDC1 090336Z 26013KT 15/08 A2998 RMK A01 T01500077  RH  061%=      5-min Rain = 0
KDC1 090337Z 26011KT 15/08 A2998 RMK A01 T01500077  RH  062%=      5-min Rain = 0
KDC1 090338Z 25013KT 15/08 A2998 RMK A01 T01500078  RH  062%=      5-min Rain = 0
KDC1 090339Z 25012KT 15/08 A2998 RMK A01 T01500078  RH  062%=      5-min Rain = 0
KDC1 090340Z 25012KT 15/08 A2998 RMK A01 T01500078  RH  062%=      5-min Rain = 0
KDC1 090341Z 26013KT 15/08 A2998 RMK A01 T01500078  RH  062%=      5-min Rain = 0
KDC1 090342Z 25013KT 15/08 A2998 RMK A01 T01500078  RH  062%=      5-min Rain = 0
KDC1 090343Z 25014KT 15/08 A2998 RMK A01 T01500078  RH  062%=      5-min Rain = 0
KDC1 090344Z 25012KT 15/08 A2998 RMK A01 T01500078  RH  062%=      5-min Rain = 0
KDC1 090345Z 25010KT 15/08 A2998 RMK A01 T01500078  RH  062%=      5-min Rain = 0
KDC1 090346Z 25010G15KT 15/08 A2998 RMK A01 T01500078  RH  062%=      5-min Rain = 0
KDC1 090347Z 25011KT 15/08 A2998 RMK A01 T01500078  RH  062%=      5-min Rain = 0
KDC1 090348Z 25013KT 15/08 A2998 RMK A01 T01500079  RH  062%=      5-min Rain = 0
KDC1 090349Z 25013KT 15/08 A2998 RMK A01 T01500078  RH  062%=      5-min Rain = 0
KDC1 090350Z 25014KT 15/08 A2998 RMK A01 T01500078  RH  062%=      5-min Rain = 0
KDC1 090351Z 25014KT 15/08 A2998 RMK A01 T01500078  RH  062%=      5-min Rain = 0
KDC1 090352Z 25014G19KT 15/08 A2998 RMK A01 T01500078  RH  062%=      5-min Rain = 0
KDC1 090353Z 25014KT 15/08 A2999 RMK A01 T01500078  RH  062%=      5-min Rain = 0
KDC1 090354Z 26012KT 15/08 A2999 RMK A01 T01500078  RH  062%=      5-min Rain = 0
KDC1 090355Z 26012KT 15/08 A2999 RMK A01 T01500079  RH  063%=      5-min Rain = 0
KDC1 090356Z 26011G16KT 15/08 A2999 RMK A01 T01490079  RH  063%=      5-min Rain = 0
KDC1 090357Z 26013KT 15/08 A2999 RMK A01 T01490079  RH  063%=      5-min Rain = 0
KDC1 090358Z 26016KT 15/08 A2999 RMK A01 T01480079  RH  063%=      5-min Rain = 0
KDC1 090359Z 26013KT 15/08 A2999 RMK A01 T01480079  RH  063%=      5-min Rain = 0
KDC1 090400Z 26013KT 15/08 A2999 RMK A01 T01480080  RH  063%=      5-min Rain = 0
KDC1 090401Z 26012KT 15/08 A2999 RMK A01 T01480080  RH  064%=      5-min Rain = 0
KDC1 090402Z 26012KT 15/08 A2999 RMK A01 T01480080  RH  064%=      5-min Rain = 0
KDC1 090403Z 27014KT 15/08 A2999 RMK A01 T01470080  RH  064%=      5-min Rain = 0
KDC1 090404Z 26015KT 15/08 A2999 RMK A01 T01470080  RH  064%=      5-min Rain = 0
KDC1 090405Z 26014G19KT 15/08 A2999 RMK A01 T01470080  RH  064%=      5-min Rain = 0
KDC1 090406Z 26013KT 15/08 A2999 RMK A01 T01470080  RH  064%=      5-min Rain = 0
KDC1 090407Z 26013KT 15/08 A2999 RMK A01 T01480080  RH  064%=      5-min Rain = 0
KDC1 090408Z 26014KT 15/08 A2999 RMK A01 T01470079  RH  064%=      5-min Rain = 0
KDC1 090409Z 26012KT 15/08 A2999 RMK A01 T01480080  RH  064%=      5-min Rain = 0
KDC1 090410Z 26012KT 15/08 A2999 RMK A01 T01470080  RH  064%=      5-min Rain = 0
KDC1 090411Z 26012KT 15/08 A2999 RMK A01 T01470080  RH  064%=      5-min Rain = 0
KDC1 090412Z 26012KT 15/08 A2999 RMK A01 T01470080  RH  064%=      5-min Rain = 0
KDC1 090413Z 26012KT 15/08 A2999 RMK A01 T01470079  RH  064%=      5-min Rain = 0
KDC1 090414Z 26013KT 15/08 A2998 RMK A01 T01470079  RH  064%=      5-min Rain = 0
KDC1 090415Z 26013KT 15/08 A2999 RMK A01 T01470079  RH  064%=      5-min Rain = 0
KDC1 090416Z 26013KT 15/08 A2999 RMK A01 T01470079  RH  064%=      5-min Rain = 0
KDC1 090417Z 25012KT 15/08 A2999 RMK A01 T01470080  RH  064%=      5-min Rain = 0
KDC1 090418Z 25013KT 15/08 A2999 RMK A01 T01470079  RH  064%=      5-min Rain = 0
KDC1 090419Z 26013KT 15/08 A2999 RMK A01 T01470079  RH  064%=      5-min Rain = 0
KDC1 090420Z 25013KT 15/08 A2999 RMK A01 T01470079  RH  064%=      5-min Rain = 0
KDC1 090421Z 25013KT 15/08 A2999 RMK A01 T01470079  RH  064%=      5-min Rain = 0
KDC1 090422Z 25013KT 15/08 A2999 RMK A01 T01470079  RH  064%=      5-min Rain = 0
KDC1 090423Z 26013KT 15/08 A2999 RMK A01 T01470079  RH  064%=      5-min Rain = 0
KDC1 090424Z 25012KT 15/08 A2999 RMK A01 T01470079  RH  064%=      5-min Rain = 0
KDC1 090425Z 25011KT 15/08 A2999 RMK A01 T01470079  RH  064%=      5-min Rain = 0
KDC1 090426Z 25012KT 15/08 A2999 RMK A01 T01470079  RH  064%=      5-min Rain = 0
KDC1 090427Z 25012KT 15/08 A2999 RMK A01 T01470079  RH  064%=      5-min Rain = 0
KDC1 090428Z 25010KT 15/08 A2999 RMK A01 T01470079  RH  064%=      5-min Rain = 0
KDC1 090429Z 26013KT 15/08 A2999 RMK A01 T01470079  RH  064%=      5-min Rain = 0
KDC1 090430Z 26013KT 15/08 A2999 RMK A01 T01460079  RH  064%=      5-min Rain = 0
KDC1 090431Z 26013KT 15/08 A2999 RMK A01 T01460078  RH  064%=      5-min Rain = 0
KDC1 090432Z 26011KT 15/08 A2999 RMK A01 T01460079  RH  064%=      5-min Rain = 0
KDC1 090433Z 26012KT 15/08 A2999 RMK A01 T01460078  RH  064%=      5-min Rain = 0
KDC1 090434Z 26012KT 15/08 A2999 RMK A01 T01460078  RH  064%=      5-min Rain = 0
KDC1 090435Z 26011KT 15/08 A2999 RMK A01 T01460078  RH  064%=      5-min Rain = 0
KDC1 090436Z 26012KT 15/08 A2999 RMK A01 T01460078  RH  064%=      5-min Rain = 0
KDC1 090437Z 26013KT 15/08 A2999 RMK A01 T01460078  RH  063%=      5-min Rain = 0
KDC1 090438Z 25012KT 15/08 A2999 RMK A01 T01460078  RH  063%=      5-min Rain = 0
KDC1 090439Z 25011KT 15/08 A2999 RMK A01 T01460078  RH  063%=      5-min Rain = 0
KDC1 090440Z 25013KT 15/08 A2998 RMK A01 T01470078  RH  064%=      5-min Rain = 0
KDC1 090441Z 25010KT 15/08 A2998 RMK A01 T01470078  RH  063%=      5-min Rain = 0
KDC1 090442Z 24010KT 15/08 A2998 RMK A01 T01470078  RH  063%=      5-min Rain = 0
KDC1 090443Z 24009KT 15/08 A2998 RMK A01 T01470078  RH  064%=      5-min Rain = 0
KDC1 090444Z 25010KT 15/08 A2998 RMK A01 T01470078  RH  064%=      5-min Rain = 0
KDC1 090445Z 25011G17KT 15/08 A2998 RMK A01 T01470078  RH  063%=      5-min Rain = 0
KDC1 090446Z 25012KT 15/08 A2998 RMK A01 T01470077  RH  063%=      5-min Rain = 0
KDC1 090447Z 24011KT 15/08 A2998 RMK A01 T01470077  RH  063%=      5-min Rain = 0
KDC1 090448Z 24010KT 15/08 A2999 RMK A01 T01470077  RH  063%=      5-min Rain = 0
KDC1 090449Z 24011KT 15/08 A2999 RMK A01 T01470077  RH  063%=      5-min Rain = 0
KDC1 090450Z 24011KT 15/08 A2999 RMK A01 T01470077  RH  063%=      5-min Rain = 0
KDC1 090451Z 24010KT 15/08 A2999 RMK A01 T01470077  RH  063%=      5-min Rain = 0
KDC1 090452Z 25010KT 15/08 A2999 RMK A01 T01460077  RH  063%=      5-min Rain = 0
KDC1 090453Z 25010KT 15/08 A2999 RMK A01 T01460077  RH  063%=      5-min Rain = 0
KDC1 090454Z 25010KT 15/08 A2999 RMK A01 T01460076  RH  063%=      5-min Rain = 0
KDC1 090455Z 25009KT 15/08 A2999 RMK A01 T01460076  RH  063%=      5-min Rain = 0
KDC1 090456Z 24007KT 15/08 A2999 RMK A01 T01460077  RH  063%=      5-min Rain = 0
KDC1 090457Z 24008KT 15/08 A2999 RMK A01 T01450076  RH  063%=      5-min Rain = 0
KDC1 090458Z 24008KT 15/08 A2999 RMK A01 T01450076  RH  063%=      5-min Rain = 0
KDC1 090459Z 25008KT 15/08 A2999 RMK A01 T01450076  RH  063%=      5-min Rain = 0
KDC1 090500Z 25009KT 15/08 A2999 RMK A01 T01450077  RH  064%=      5-min Rain = 0
KDC1 090501Z 24009KT 14/08 A2999 RMK A01 T01440076  RH  064%=      5-min Rain = 0
KDC1 090502Z 24009KT 15/08 A30 RMK A01 T01450076  RH  063%=      5-min Rain = 0
KDC1 090503Z 25010KT 15/08 A30 RMK A01 T01450076  RH  064%=      5-min Rain = 0
KDC1 090504Z 25011KT 15/08 A30 RMK A01 T01450077  RH  064%=      5-min Rain = 0
KDC1 090505Z 25011KT 15/08 A30 RMK A01 T01450077  RH  064%=      5-min Rain = 0
KDC1 090506Z 25011KT 15/08 A30 RMK A01 T01450076  RH  064%=      5-min Rain = 0
KDC1 090507Z 26011KT 15/08 A30 RMK A01 T01450077  RH  064%=      5-min Rain = 0
KDC1 090508Z 26009KT 15/08 A30 RMK A01 T01450077  RH  064%=      5-min Rain = 0
KDC1 090509Z 26009KT 14/08 A30 RMK A01 T01440077  RH  064%=      5-min Rain = 0
KDC1 090510Z 26009KT 14/08 A30 RMK A01 T01440077  RH  064%=      5-min Rain = 0
KDC1 090511Z 26009KT 14/08 A30 RMK A01 T01440077  RH  064%=      5-min Rain = 0
KDC1 090512Z 25010KT 14/08 A30 RMK A01 T01440077  RH  064%=      5-min Rain = 0
KDC1 090513Z 26011KT 14/08 A30 RMK A01 T01440076  RH  064%=      5-min Rain = 0
KDC1 090514Z 26010KT 14/08 A30 RMK A01 T01440077  RH  064%=      5-min Rain = 0
KDC1 090515Z 26010KT 14/08 A2999 RMK A01 T01440077  RH  064%=      5-min Rain = 0
KDC1 090516Z 25010KT 14/08 A2999 RMK A01 T01440077  RH  064%=      5-min Rain = 0
KDC1 090517Z 25009KT 14/08 A2999 RMK A01 T01440077  RH  064%=      5-min Rain = 0
KDC1 090518Z 25010KT 14/08 A2999 RMK A01 T01440077  RH  064%=      5-min Rain = 0
KDC1 090519Z 25011KT 14/08 A2999 RMK A01 T01440077  RH  064%=      5-min Rain = 0
KDC1 090520Z 25012KT 14/08 A2999 RMK A01 T01440077  RH  064%=      5-min Rain = 0
KDC1 090521Z 25010KT 14/08 A2999 RMK A01 T01440076  RH  064%=      5-min Rain = 0
KDC1 090522Z 25009KT 14/08 A2999 RMK A01 T01440076  RH  064%=      5-min Rain = 0
KDC1 090523Z 25009KT 14/08 A2999 RMK A01 T01430077  RH  064%=      5-min Rain = 0
KDC1 090524Z 25010KT 14/08 A2999 RMK A01 T01430077  RH  064%=      5-min Rain = 0
KDC1 090525Z 25009KT 14/08 A2999 RMK A01 T01430077  RH  064%=      5-min Rain = 0
KDC1 090526Z 25009KT 14/08 A2999 RMK A01 T01430077  RH  064%=      5-min Rain = 0
KDC1 090527Z 25012KT 14/08 A2999 RMK A01 T01430077  RH  065%=      5-min Rain = 0
KDC1 090528Z 25009KT 14/08 A2999 RMK A01 T01430076  RH  064%=      5-min Rain = 0
KDC1 090529Z 25009KT 14/08 A2999 RMK A01 T01430077  RH  064%=      5-min Rain = 0
KDC1 090530Z 25008KT 14/08 A2999 RMK A01 T01430078  RH  065%=      5-min Rain = 0
KDC1 090531Z 25009KT 14/08 A2999 RMK A01 T01420078  RH  065%=      5-min Rain = 0
KDC1 090532Z 24007KT 14/08 A2999 RMK A01 T01420078  RH  065%=      5-min Rain = 0
KDC1 090533Z 24009KT 14/08 A2999 RMK A01 T01420078  RH  065%=      5-min Rain = 0
KDC1 090534Z 24007KT 14/08 A2999 RMK A01 T01410077  RH  065%=      5-min Rain = 0
KDC1 090535Z 24007KT 14/08 A2999 RMK A01 T01420078  RH  066%=      5-min Rain = 0
KDC1 090536Z 24008KT 14/08 A2999 RMK A01 T01420078  RH  066%=      5-min Rain = 0
KDC1 090537Z 24008KT 14/08 A2999 RMK A01 T01410078  RH  066%=      5-min Rain = 0
KDC1 090538Z 24008KT 14/08 A2998 RMK A01 T01420078  RH  065%=      5-min Rain = 0
KDC1 090539Z 24008KT 14/08 A2998 RMK A01 T01410077  RH  065%=      5-min Rain = 0
KDC1 090540Z 25007KT 14/08 A2998 RMK A01 T01410077  RH  065%=      5-min Rain = 0
KDC1 090541Z 24007KT 14/08 A2998 RMK A01 T01410078  RH  065%=      5-min Rain = 0
KDC1 090542Z 23006KT 14/08 A2998 RMK A01 T01410078  RH  066%=      5-min Rain = 0
KDC1 090543Z 24007KT 14/08 A2998 RMK A01 T01410078  RH  066%=      5-min Rain = 0
KDC1 090544Z 24007KT 14/08 A2998 RMK A01 T01410078  RH  066%=      5-min Rain = 0
KDC1 090545Z 24007KT 14/08 A2998 RMK A01 T01410078  RH  066%=      5-min Rain = 0
KDC1 090546Z 25007KT 14/08 A2999 RMK A01 T01410078  RH  066%=      5-min Rain = 0
KDC1 090547Z 24007KT 14/08 A2999 RMK A01 T01410079  RH  066%=      5-min Rain = 0
KDC1 090548Z 25007KT 14/08 A2999 RMK A01 T01400078  RH  066%=      5-min Rain = 0
KDC1 090549Z 25008KT 14/08 A2999 RMK A01 T01410079  RH  066%=      5-min Rain = 0
KDC1 090550Z 25007KT 14/08 A2999 RMK A01 T01400078  RH  066%=      5-min Rain = 0
KDC1 090551Z 25007KT 14/08 A2999 RMK A01 T01410078  RH  066%=      5-min Rain = 0
KDC1 090552Z 25006KT 14/08 A2999 RMK A01 T01400078  RH  066%=      5-min Rain = 0
KDC1 090553Z 25007KT 14/08 A2999 RMK A01 T01400078  RH  066%=      5-min Rain = 0
KDC1 090554Z 25006KT 14/08 A2999 RMK A01 T01390078  RH  066%=      5-min Rain = 0
KDC1 090555Z 25006KT 14/08 A2999 RMK A01 T01400078  RH  066%=      5-min Rain = 0
KDC1 090556Z 24007KT 14/08 A2999 RMK A01 T01390078  RH  066%=      5-min Rain = 0
KDC1 090557Z 24005KT 14/08 A2999 RMK A01 T01390078  RH  067%=      5-min Rain = 0
KDC1 090558Z 24005KT 14/08 A2999 RMK A01 T01390078  RH  067%=      5-min Rain = 0
KDC1 090559Z 23006KT 14/08 A2999 RMK A01 T01390078  RH  067%=      5-min Rain = 0

Page generated in 0.1231 seconds.